Wetterdaten: Donnerstag, 17.12.2020
Datum Zeit Temp. Aussen Temp. o. S. Temp +5cm Feuchte Auss Luftdruck Regen Sonnenschein Regendauer Solar Windben Empfang
17.12.2020 00:00 8,4 C 7,8 C 7,2 C 96 % 1014,8 hPa 0,0 l/m 0 min 0 min 0 W/m 3,2 km/h (1 Bft) 97,87 %
17.12.2020 00:02 8,4 C 7,8 C 7,2 C 96 % 1014,8 hPa 0,0 l/m 0 min 0 min 0 W/m 3,2 km/h (1 Bft) 97,30 %
17.12.2020 00:04 8,4 C 7,8 C 7,2 C 96 % 1014,8 hPa 0,0 l/m 0 min 0 min 0 W/m 3,2 km/h (1 Bft) 97,87 %
17.12.2020 00:08 8,4 C 7,8 C 7,2 C 96 % 1014,7 hPa 0,0 l/m 0 min 0 min 0 W/m 3,2 km/h (1 Bft) 95,79 %
17.12.2020 00:10 8,4 C 7,8 C 7,2 C 96 % 1014,7 hPa 0,0 l/m 0 min 0 min 0 W/m 0,0 km/h (0 Bft) 95,74 %
17.12.2020 00:12 8,4 C 7,8 C 7,2 C 96 % 1014,7 hPa 0,0 l/m 0 min 0 min 0 W/m 0,0 km/h (0 Bft) 97,83 %
17.12.2020 00:14 8,4 C 7,8 C 7,2 C 96 % 1014,7 hPa 0,0 l/m 0 min 0 min 0 W/m 6,4 km/h (2 Bft) 97,87 %
17.12.2020 00:16 8,4 C 7,8 C 7,2 C 96 % 1014,7 hPa 0,0 l/m 0 min 0 min 0 W/m 0,0 km/h (0 Bft) 97,87 %
17.12.2020 00:18 8,4 C 7,8 C 7,2 C 96 % 1014,8 hPa 0,0 l/m 0 min 0 min 0 W/m 6,4 km/h (2 Bft) 93,62 %
17.12.2020 00:20 8,4 C 7,8 C 7,7 C 96 % 1014,8 hPa 0,0 l/m 0 min 0 min 0 W/m 6,4 km/h (2 Bft) 95,74 %
17.12.2020 00:22 8,4 C 7,8 C 7,7 C 96 % 1014,7 hPa 0,0 l/m 0 min 0 min 0 W/m 3,2 km/h (1 Bft) 95,74 %
17.12.2020 00:24 8,4 C 7,8 C 7,7 C 96 % 1014,6 hPa 0,0 l/m 0 min 0 min 0 W/m 0,0 km/h (0 Bft) 95,65 %
17.12.2020 00:26 8,4 C 7,8 C 7,7 C 96 % 1014,6 hPa 0,0 l/m 0 min 0 min 0 W/m 6,4 km/h (2 Bft) 93,62 %
17.12.2020 00:28 8,4 C 7,8 C 7,7 C 96 % 1014,8 hPa 0,0 l/m 0 min 0 min 0 W/m 3,2 km/h (1 Bft) 95,74 %
17.12.2020 00:30 8,4 C 7,8 C 7,7 C 96 % 1014,8 hPa 0,0 l/m 0 min 0 min 0 W/m 0,0 km/h (0 Bft) 93,62 %
17.12.2020 00:32 8,4 C 7,8 C 7,7 C 96 % 1014,7 hPa 0,0 l/m 0 min 0 min 0 W/m 6,4 km/h (2 Bft) 97,87 %
17.12.2020 00:34 8,4 C 7,8 C 7,7 C 96 % 1014,7 hPa 0,0 l/m 0 min 0 min 0 W/m 3,2 km/h (1 Bft) 97,87 %
17.12.2020 00:36 8,5 C 7,8 C 7,7 C 96 % 1014,6 hPa 0,0 l/m 0 min 0 min 0 W/m 3,2 km/h (1 Bft) 93,48 %
17.12.2020 00:38 8,5 C 7,8 C 7,7 C 96 % 1014,6 hPa 0,0 l/m 0 min 0 min 0 W/m 3,2 km/h (1 Bft) 95,74 %
17.12.2020 00:40 8,5 C 7,8 C 7,7 C 96 % 1014,6 hPa 0,0 l/m 0 min 0 min 0 W/m 0,0 km/h (0 Bft) 97,87 %
17.12.2020 00:42 8,5 C 7,8 C 7,7 C 96 % 1014,6 hPa 0,0 l/m 0 min 0 min 0 W/m 6,4 km/h (2 Bft) 98,00 %
17.12.2020 00:44 8,5 C 7,8 C 7,7 C 96 % 1014,5 hPa 0,0 l/m 0 min 0 min 0 W/m 6,4 km/h (2 Bft) 97,87 %
17.12.2020 00:46 8,5 C 7,8 C 7,7 C 96 % 1014,5 hPa 0,0 l/m 0 min 0 min 0 W/m 0,0 km/h (0 Bft) 93,62 %
17.12.2020 00:48 8,5 C 7,8 C 7,7 C 96 % 1014,5 hPa 0,0 l/m 0 min 0 min 0 W/m 6,4 km/h (2 Bft) 97,87 %
17.12.2020 00:50 8,5 C 7,8 C 7,7 C 96 % 1014,5 hPa 0,0 l/m 0 min 0 min 0 W/m 6,4 km/h (2 Bft) 97,83 %
17.12.2020 00:52 8,5 C 8,3 C 7,7 C 96 % 1014,6 hPa 0,0 l/m 0 min 0 min 0 W/m 6,4 km/h (2 Bft) 97,87 %
17.12.2020 00:54 8,5 C 8,3 C 7,7 C 96 % 1014,6 hPa 0,0 l/m 0 min 0 min 0 W/m 3,2 km/h (1 Bft) 97,87 %
17.12.2020 00:56 8,5 C 8,3 C 7,7 C 96 % 1014,6 hPa 0,0 l/m 0 min 0 min 0 W/m 3,2 km/h (1 Bft) 95,74 %
17.12.2020 00:58 8,5 C 8,3 C 7,7 C 96 % 1014,6 hPa 0,0 l/m 0 min 0 min 0 W/m 6,4 km/h (2 Bft) 95,74 %
17.12.2020 01:00 8,5 C 8,3 C 7,7 C 96 % 1014,6 hPa 0,0 l/m 0 min 0 min 0 W/m 3,2 km/h (1 Bft) 97,87 %
17.12.2020 01:02 8,5 C 8,3 C 7,7 C 96 % 1014,6 hPa 0,0 l/m 0 min 0 min 0 W/m 3,2 km/h (1 Bft) 97,83 %
17.12.2020 01:04 8,5 C 8,3 C 7,7 C 96 % 1014,6 hPa 0,0 l/m 0 min 0 min 0 W/m 16,1 km/h (3 Bft) 95,74 %
17.12.2020 01:06 8,6 C 8,3 C 7,7 C 96 % 1014,5 hPa 0,0 l/m 0 min 0 min 0 W/m 3,2 km/h (1 Bft) 93,62 %
17.12.2020 01:08 8,5 C 8,3 C 7,7 C 96 % 1014,6 hPa 0,0 l/m 0 min 0 min 0 W/m 0,0 km/h (0 Bft) 100,00 %
17.12.2020 01:10 8,6 C 8,3 C 7,7 C 96 % 1014,5 hPa 0,0 l/m 0 min 0 min 0 W/m 0,0 km/h (0 Bft) 100,00 %
17.12.2020 01:12 8,6 C 8,3 C 7,7 C 96 % 1014,6 hPa 0,0 l/m 0 min 0 min 0 W/m 3,2 km/h (1 Bft) 100,00 %
17.12.2020 01:14 8,6 C 8,3 C 7,7 C 96 % 1014,6 hPa 0,0 l/m 0 min 0 min 0 W/m 6,4 km/h (2 Bft) 97,83 %
17.12.2020 01:16 8,6 C 8,3 C 7,7 C 96 % 1014,5 hPa 0,0 l/m 0 min 0 min 0 W/m 0,0 km/h (0 Bft) 97,67 %
17.12.2020 01:18 8,6 C 8,3 C 7,7 C 96 % 1014,6 hPa 0,0 l/m 0 min 0 min 0 W/m 3,2 km/h (1 Bft) 100,00 %
17.12.2020 01:20 8,6 C 8,3 C 7,7 C 96 % 1014,5 hPa 0,0 l/m 0 min 0 min 0 W/m 0,0 km/h (0 Bft) 100,00 %
17.12.2020 01:22 8,6 C 8,3 C 7,7 C 96 % 1014,5 hPa 0,0 l/m 0 min 0 min 0 W/m 3,2 km/h (1 Bft) 100,00 %
17.12.2020 01:24 8,6 C 8,3 C 7,7 C 96 % 1014,5 hPa 0,0 l/m 0 min 0 min 0 W/m 0,0 km/h (0 Bft) 97,87 %
17.12.2020 01:26 8,6 C 8,3 C 7,7 C 96 % 1014,5 hPa 0,0 l/m 0 min 0 min 0 W/m 3,2 km/h (1 Bft) 100,00 %
17.12.2020 01:28 8,6 C 8,3 C 7,7 C 96 % 1014,4 hPa 0,0 l/m 0 min 0 min 0 W/m 3,2 km/h (1 Bft) 100,00 %
17.12.2020 01:30 8,6 C 8,3 C 7,7 C 96 % 1014,4 hPa 0,0 l/m 0 min 0 min 0 W/m 6,4 km/h (2 Bft) 100,00 %
17.12.2020 01:32 8,7 C 8,3 C 7,7 C 96 % 1014,4 hPa 0,0 l/m 0 min 0 min 0 W/m 0,0 km/h (0 Bft) 100,00 %
17.12.2020 01:34 8,7 C 8,3 C 7,7 C 96 % 1014,5 hPa 0,0 l/m 0 min 0 min 0 W/m 3,2 km/h (1 Bft) 97,87 %
17.12.2020 01:36 8,7 C 8,3 C 7,7 C 96 % 1014,4 hPa 0,0 l/m 0 min 0 min 0 W/m 3,2 km/h (1 Bft) 100,00 %
17.12.2020 01:38 8,8 C 8,3 C 7,7 C 96 % 1014,4 hPa 0,0 l/m 0 min 0 min 0 W/m 12,9 km/h (3 Bft) 100,00 %
17.12.2020 01:40 8,8 C 8,3 C 7,7 C 96 % 1014,4 hPa 0,0 l/m 0 min 0 min 0 W/m 3,2 km/h (1 Bft) 78,72 %
17.12.2020 01:42 8,8 C 8,3 C 7,7 C 96 % 1014,3 hPa 0,0 l/m 0 min 0 min 0 W/m 0,0 km/h (0 Bft) 71,05 %
17.12.2020 01:44 8,8 C 8,3 C 7,7 C 96 % 1014,3 hPa 0,0 l/m 0 min 0 min 0 W/m 3,2 km/h (1 Bft) 97,87 %
17.12.2020 01:46 8,7 C 8,3 C 7,7 C 96 % 1014,4 hPa 0,0 l/m 0 min 0 min 0 W/m 3,2 km/h (1 Bft) 97,83 %
17.12.2020 01:48 8,7 C 8,3 C 7,7 C 96 % 1014,3 hPa 0,0 l/m 0 min 0 min 0 W/m 3,2 km/h (1 Bft) 100,00 %
17.12.2020 01:50 8,7 C 8,3 C 7,7 C 96 % 1014,4 hPa 0,0 l/m 0 min 0 min 0 W/m 6,4 km/h (2 Bft) 100,00 %
17.12.2020 01:52 8,8 C 8,3 C 7,7 C 96 % 1014,4 hPa 0,0 l/m 0 min 0 min 0 W/m 3,2 km/h (1 Bft) 100,00 %
17.12.2020 01:54 8,7 C 8,3 C 7,7 C 96 % 1014,3 hPa 0,0 l/m 0 min 0 min 0 W/m 6,4 km/h (2 Bft) 97,87 %
17.12.2020 01:56 8,8 C 8,3 C 7,7 C 96 % 1014,4 hPa 0,0 l/m 0 min 0 min 0 W/m 6,4 km/h (2 Bft) 100,00 %
17.12.2020 01:58 8,8 C 8,3 C 7,7 C 96 % 1014,4 hPa 0,0 l/m 0 min 0 min 0 W/m 6,4 km/h (2 Bft) 100,00 %
17.12.2020 02:00 8,8 C 8,3 C 7,7 C 96 % 1014,4 hPa 0,0 l/m 0 min 0 min 0 W/m 12,9 km/h (3 Bft) 100,00 %
17.12.2020 02:02 8,8 C 8,3 C 7,7 C 96 % 1014,5 hPa 0,0 l/m 0 min 0 min 0 W/m 3,2 km/h (1 Bft) 97,87 %
17.12.2020 02:04 8,8 C 8,3 C 7,7 C 96 % 1014,5 hPa 0,0 l/m 0 min 0 min 0 W/m 3,2 km/h (1 Bft) 100,00 %
17.12.2020 02:06 8,8 C 8,3 C 7,7 C 96 % 1014,5 hPa 0,0 l/m 0 min 0 min 0 W/m 3,2 km/h (1 Bft) 100,00 %
17.12.2020 02:08 8,8 C 8,3 C 7,7 C 96 % 1014,5 hPa 0,0 l/m 0 min 0 min 0 W/m 6,4 km/h (2 Bft) 100,00 %
17.12.2020 02:10 8,8 C 8,3 C 7,7 C 96 % 1014,5 hPa 0,0 l/m 0 min 0 min 0 W/m 6,4 km/h (2 Bft) 97,14 %
17.12.2020 02:12 8,8 C 8,3 C 7,7 C 96 % 1014,5 hPa 0,0 l/m 0 min 0 min 0 W/m 3,2 km/h (1 Bft) 93,62 %
17.12.2020 02:14 8,8 C 8,3 C 7,7 C 96 % 1014,5 hPa 0,0 l/m 0 min 0 min 0 W/m 0,0 km/h (0 Bft) 100,00 %
17.12.2020 02:16 8,8 C 8,3 C 7,7 C 96 % 1014,5 hPa 0,0 l/m 0 min 0 min 0 W/m 6,4 km/h (2 Bft) 100,00 %
17.12.2020 02:18 8,8 C 8,3 C 7,7 C 96 % 1014,5 hPa 0,0 l/m 0 min 0 min 0 W/m 3,2 km/h (1 Bft) 100,00 %
17.12.2020 02:20 8,8 C 8,3 C 7,7 C 96 % 1014,6 hPa 0,0 l/m 0 min 0 min 0 W/m 0,0 km/h (0 Bft) 97,87 %
17.12.2020 02:22 8,9 C 8,3 C 7,7 C 96 % 1014,6 hPa 0,0 l/m 0 min 0 min 0 W/m 6,4 km/h (2 Bft) 95,65 %
17.12.2020 02:24 8,9 C 8,3 C 7,7 C 96 % 1014,5 hPa 0,0 l/m 0 min 0 min 0 W/m 3,2 km/h (1 Bft) 100,00 %
17.12.2020 02:26 8,9 C 8,3 C 7,7 C 96 % 1014,5 hPa 0,0 l/m 0 min 0 min 0 W/m 0,0 km/h (0 Bft) 97,87 %
17.12.2020 02:28 8,9 C 8,3 C 7,7 C 96 % 1014,6 hPa 0,0 l/m 0 min 0 min 0 W/m 3,2 km/h (1 Bft) 97,87 %
17.12.2020 02:30 8,9 C 8,3 C 7,7 C 96 % 1014,6 hPa 0,0 l/m 0 min 2 min 0 W/m 0,0 km/h (0 Bft) 97,87 %
17.12.2020 02:32 8,9 C 8,3 C 7,7 C 96 % 1014,5 hPa 0,0 l/m 0 min 2 min 0 W/m 0,0 km/h (0 Bft) 95,74 %
17.12.2020 02:34 8,9 C 8,3 C 7,7 C 96 % 1014,6 hPa 0,0 l/m 0 min 2 min 0 W/m 0,0 km/h (0 Bft) 97,96 %
17.12.2020 02:36 8,9 C 8,3 C 7,7 C 96 % 1014,6 hPa 0,0 l/m 0 min 2 min 0 W/m 3,2 km/h (1 Bft) 95,92 %
17.12.2020 02:38 9,0 C 8,3 C 7,7 C 96 % 1014,6 hPa 0,0 l/m 0 min 2 min 0 W/m 6,4 km/h (2 Bft) 97,83 %
17.12.2020 02:40 9,0 C 8,3 C 7,7 C 96 % 1014,5 hPa 0,0 l/m 0 min 2 min 0 W/m 0,0 km/h (0 Bft) 97,87 %
17.12.2020 02:42 9,0 C 7,8 C 7,7 C 96 % 1014,5 hPa 0,0 l/m 0 min 2 min 0 W/m 3,2 km/h (1 Bft) 95,35 %
17.12.2020 02:44 9,0 C 7,8 C 7,7 C 96 % 1014,5 hPa 0,0 l/m 0 min 2 min 0 W/m 0,0 km/h (0 Bft) 97,96 %
17.12.2020 02:46 9,0 C 7,8 C 7,7 C 96 % 1014,5 hPa 0,0 l/m 0 min 2 min 0 W/m 3,2 km/h (1 Bft) 95,74 %
17.12.2020 02:48 9,0 C 7,8 C 7,7 C 96 % 1014,6 hPa 0,0 l/m 0 min 2 min 0 W/m 3,2 km/h (1 Bft) 97,87 %
17.12.2020 02:50 9,0 C 7,8 C 7,7 C 96 % 1014,7 hPa 0,0 l/m 0 min 0 min 0 W/m 3,2 km/h (1 Bft) 95,74 %
17.12.2020 02:52 9,0 C 7,8 C 7,7 C 96 % 1014,6 hPa 0,0 l/m 0 min 0 min 0 W/m 0,0 km/h (0 Bft) 97,87 %
17.12.2020 02:54 9,1 C 7,8 C 7,7 C 96 % 1014,7 hPa 0,0 l/m 0 min 0 min 0 W/m 3,2 km/h (1 Bft) 93,62 %
17.12.2020 02:56 9,0 C 7,8 C 7,7 C 96 % 1014,7 hPa 0,0 l/m 0 min 0 min 0 W/m 3,2 km/h (1 Bft) 97,83 %
17.12.2020 02:58 9,1 C 7,8 C 7,7 C 96 % 1014,7 hPa 0,0 l/m 0 min 0 min 0 W/m 3,2 km/h (1 Bft) 97,87 %
17.12.2020 03:00 9,0 C 7,8 C 7,7 C 96 % 1014,8 hPa 0,0 l/m 0 min 0 min 0 W/m 3,2 km/h (1 Bft) 95,74 %
17.12.2020 03:02 9,1 C 7,8 C 7,7 C 96 % 1014,6 hPa 0,0 l/m 0 min 0 min 0 W/m 3,2 km/h (1 Bft) 97,87 %
17.12.2020 03:04 9,1 C 7,8 C 7,7 C 96 % 1014,6 hPa 0,0 l/m 0 min 0 min 0 W/m 6,4 km/h (2 Bft) 97,87 %
17.12.2020 03:06 9,1 C 7,8 C 7,7 C 96 % 1014,6 hPa 0,0 l/m 0 min 0 min 0 W/m 0,0 km/h (0 Bft) 91,49 %
17.12.2020 03:08 9,1 C 7,8 C 7,7 C 96 % 1014,5 hPa 0,0 l/m 0 min 0 min 0 W/m 3,2 km/h (1 Bft) 95,65 %
17.12.2020 03:10 9,1 C 8,3 C 7,7 C 96 % 1014,5 hPa 0,0 l/m 0 min 0 min 0 W/m 0,0 km/h (0 Bft) 95,74 %
17.12.2020 03:12 9,1 C 8,3 C 7,7 C 96 % 1014,5 hPa 0,0 l/m 0 min 0 min 0 W/m 0,0 km/h (0 Bft) 95,74 %
17.12.2020 03:14 9,0 C 7,8 C 7,7 C 96 % 1014,5 hPa 0,0 l/m 0 min 0 min 0 W/m 6,4 km/h (2 Bft) 97,87 %
17.12.2020 03:16 9,1 C 8,3 C 7,7 C 96 % 1014,4 hPa 0,0 l/m 0 min 0 min 0 W/m 3,2 km/h (1 Bft) 97,87 %
17.12.2020 03:18 9,0 C 8,3 C 7,7 C 96 % 1014,5 hPa 0,0 l/m 0 min 0 min 0 W/m 6,4 km/h (2 Bft) 97,87 %
17.12.2020 03:20 9,1 C 8,3 C 7,7 C 96 % 1014,6 hPa 0,0 l/m 0 min 0 min 0 W/m 6,4 km/h (2 Bft) 95,65 %
17.12.2020 03:22 9,1 C 8,3 C 7,7 C 96 % 1014,5 hPa 0,0 l/m 0 min 0 min 0 W/m 6,4 km/h (2 Bft) 47,73 %
17.12.2020 03:24 9,1 C 8,3 C 7,7 C 96 % 1014,5 hPa 0,0 l/m 0 min 0 min 0 W/m 3,2 km/h (1 Bft) 97,87 %
17.12.2020 03:26 9,1 C 8,3 C 7,7 C 96 % 1014,5 hPa 0,0 l/m 0 min 0 min 0 W/m 6,4 km/h (2 Bft) 95,74 %
17.12.2020 03:28 9,1 C 8,3 C 7,7 C 96 % 1014,5 hPa 0,0 l/m 0 min 0 min 0 W/m 6,4 km/h (2 Bft) 97,87 %
17.12.2020 03:30 9,1 C 8,3 C 7,7 C 96 % 1014,5 hPa 0,0 l/m 0 min 0 min 0 W/m 0,0 km/h (0 Bft) 95,65 %
17.12.2020 03:32 9,1 C 7,8 C 7,7 C 96 % 1014,5 hPa 0,0 l/m 0 min 0 min 0 W/m 3,2 km/h (1 Bft) 97,87 %
17.12.2020 03:34 9,0 C 7,8 C 7,7 C 96 % 1014,5 hPa 0,0 l/m 0 min 0 min 0 W/m 6,4 km/h (2 Bft) 97,87 %
17.12.2020 03:36 9,0 C 7,8 C 7,7 C 96 % 1014,5 hPa 0,0 l/m 0 min 0 min 0 W/m 3,2 km/h (1 Bft) 97,87 %
17.12.2020 03:38 9,0 C 8,3 C 7,7 C 96 % 1014,5 hPa 0,0 l/m 0 min 0 min 0 W/m 3,2 km/h (1 Bft) 95,74 %
17.12.2020 03:40 9,0 C 8,3 C 7,7 C 96 % 1014,4 hPa 0,0 l/m 0 min 0 min 0 W/m 0,0 km/h (0 Bft) 95,74 %
17.12.2020 03:42 9,0 C 8,3 C 7,7 C 96 % 1014,4 hPa 0,0 l/m 0 min 0 min 0 W/m 3,2 km/h (1 Bft) 97,83 %
17.12.2020 03:44 9,0 C 7,8 C 7,7 C 96 % 1014,3 hPa 0,0 l/m 0 min 0 min 0 W/m 3,2 km/h (1 Bft) 97,87 %
17.12.2020 03:46 9,0 C 7,8 C 7,7 C 96 % 1014,4 hPa 0,0 l/m 0 min 2 min 0 W/m 3,2 km/h (1 Bft) 95,74 %
17.12.2020 03:48 9,0 C 7,8 C 7,7 C 96 % 1014,4 hPa 0,0 l/m 0 min 0 min 0 W/m 0,0 km/h (0 Bft) 95,74 %
17.12.2020 03:50 9,0 C 7,8 C 7,7 C 96 % 1014,4 hPa 0,0 l/m 0 min 0 min 0 W/m 0,0 km/h (0 Bft) 100,00 %
17.12.2020 03:52 9,0 C 7,8 C 7,7 C 96 % 1014,4 hPa 0,0 l/m 0 min 2 min 0 W/m 12,9 km/h (3 Bft) 100,00 %
17.12.2020 03:54 9,0 C 7,8 C 7,7 C 96 % 1014,5 hPa 0,0 l/m 0 min 0 min 0 W/m 16,1 km/h (3 Bft) 100,00 %
17.12.2020 03:56 9,0 C 7,8 C 7,7 C 96 % 1014,4 hPa 0,0 l/m 0 min 0 min 0 W/m 12,9 km/h (3 Bft) 100,00 %
17.12.2020 03:58 9,0 C 7,8 C 7,7 C 96 % 1014,5 hPa 0,0 l/m 0 min 0 min 0 W/m 3,2 km/h (1 Bft) 97,87 %
17.12.2020 04:00 9,0 C 8,3 C 7,7 C 96 % 1014,4 hPa 0,0 l/m 0 min 0 min 0 W/m 3,2 km/h (1 Bft) 100,00 %
17.12.2020 04:02 9,0 C 8,3 C 7,7 C 96 % 1014,4 hPa 0,0 l/m 0 min 0 min 0 W/m 0,0 km/h (0 Bft) 100,00 %
17.12.2020 04:04 9,0 C 8,3 C 7,7 C 96 % 1014,4 hPa 0,0 l/m 0 min 0 min 0 W/m 3,2 km/h (1 Bft) 100,00 %
17.12.2020 04:06 9,0 C 8,3 C 7,7 C 96 % 1014,3 hPa 0,0 l/m 0 min 0 min 0 W/m 0,0 km/h (0 Bft) 100,00 %
17.12.2020 04:08 9,0 C 8,3 C 7,7 C 96 % 1014,3 hPa 0,0 l/m 0 min 0 min 0 W/m 3,2 km/h (1 Bft) 97,87 %
17.12.2020 04:10 9,0 C 8,3 C 7,7 C 96 % 1014,3 hPa 0,0 l/m 0 min 0 min 0 W/m 3,2 km/h (1 Bft) 100,00 %
17.12.2020 04:12 9,0 C 8,3 C 7,7 C 96 % 1014,3 hPa 0,0 l/m 0 min 0 min 0 W/m 6,4 km/h (2 Bft) 100,00 %
17.12.2020 04:14 9,0 C 8,3 C 7,7 C 96 % 1014,3 hPa 0,0 l/m 0 min 0 min 0 W/m 3,2 km/h (1 Bft) 100,00 %
17.12.2020 04:16 9,0 C 8,3 C 7,7 C 96 % 1014,3 hPa 0,0 l/m 0 min 0 min 0 W/m 3,2 km/h (1 Bft) 100,00 %
17.12.2020 04:18 9,0 C 8,3 C 7,7 C 96 % 1014,3 hPa 0,0 l/m 0 min 0 min 0 W/m 0,0 km/h (0 Bft) 97,87 %
17.12.2020 04:20 9,0 C 8,3 C 7,7 C 96 % 1014,3 hPa 0,0 l/m 0 min 0 min 0 W/m 3,2 km/h (1 Bft) 100,00 %
17.12.2020 04:22 9,0 C 8,3 C 7,7 C 96 % 1014,3 hPa 0,0 l/m 0 min 0 min 0 W/m 0,0 km/h (0 Bft) 100,00 %
17.12.2020 04:24 9,0 C 8,3 C 7,7 C 96 % 1014,3 hPa 0,0 l/m 0 min 0 min 0 W/m 3,2 km/h (1 Bft) 100,00 %
17.12.2020 04:26 9,0 C 8,3 C 7,7 C 96 % 1014,3 hPa 0,0 l/m 0 min 0 min 0 W/m 6,4 km/h (2 Bft) 97,87 %
17.12.2020 04:28 9,0 C 8,3 C 7,7 C 96 % 1014,3 hPa 0,0 l/m 0 min 0 min 0 W/m 0,0 km/h (0 Bft) 100,00 %
17.12.2020 04:30 9,0 C 8,3 C 7,7 C 96 % 1014,2 hPa 0,0 l/m 0 min 0 min 0 W/m 12,9 km/h (3 Bft) 100,00 %
17.12.2020 04:32 9,0 C 8,3 C 7,7 C 95 % 1014,3 hPa 0,0 l/m 0 min 0 min 0 W/m 0,0 km/h (0 Bft) 100,00 %
17.12.2020 04:34 9,0 C 8,3 C 7,7 C 95 % 1014,4 hPa 0,0 l/m 0 min 0 min 0 W/m 16,1 km/h (3 Bft) 100,00 %
17.12.2020 04:36 9,0 C 8,3 C 7,7 C 95 % 1014,4 hPa 0,0 l/m 0 min 0 min 0 W/m 6,4 km/h (2 Bft) 97,83 %
17.12.2020 04:38 9,1 C 8,3 C 7,7 C 95 % 1014,4 hPa 0,0 l/m 0 min 0 min 0 W/m 6,4 km/h (2 Bft) 100,00 %
17.12.2020 04:40 9,1 C 8,3 C 7,7 C 95 % 1014,3 hPa 0,0 l/m 0 min 0 min 0 W/m 6,4 km/h (2 Bft) 97,87 %
17.12.2020 04:42 9,1 C 8,3 C 7,7 C 95 % 1014,3 hPa 0,0 l/m 0 min 0 min 0 W/m 16,1 km/h (3 Bft) 100,00 %
17.12.2020 04:44 9,1 C 8,3 C 7,7 C 95 % 1014,3 hPa 0,0 l/m 0 min 0 min 0 W/m 0,0 km/h (0 Bft) 100,00 %
17.12.2020 04:46 9,1 C 8,3 C 7,7 C 95 % 1014,2 hPa 0,0 l/m 0 min 0 min 0 W/m 3,2 km/h (1 Bft) 95,74 %
17.12.2020 04:48 9,1 C 8,3 C 7,7 C 95 % 1014,3 hPa 0,0 l/m 0 min 0 min 0 W/m 3,2 km/h (1 Bft) 97,83 %
17.12.2020 04:50 9,1 C 8,3 C 7,7 C 95 % 1014,2 hPa 0,0 l/m 0 min 0 min 0 W/m 3,2 km/h (1 Bft) 100,00 %
17.12.2020 04:52 9,1 C 8,3 C 7,7 C 95 % 1014,1 hPa 0,0 l/m 0 min 0 min 0 W/m 3,2 km/h (1 Bft) 100,00 %
17.12.2020 04:54 9,1 C 8,3 C 7,7 C 95 % 1014,2 hPa 0,0 l/m 0 min 0 min 0 W/m 6,4 km/h (2 Bft) 100,00 %
17.12.2020 04:56 9,1 C 8,3 C 7,7 C 95 % 1014,2 hPa 0,0 l/m 0 min 0 min 0 W/m 0,0 km/h (0 Bft) 93,62 %
17.12.2020 04:58 9,1 C 8,3 C 7,7 C 95 % 1014,2 hPa 0,0 l/m 0 min 0 min 0 W/m 3,2 km/h (1 Bft) 100,00 %
17.12.2020 05:00 9,1 C 8,3 C 7,7 C 95 % 1014,2 hPa 0,0 l/m 0 min 0 min 0 W/m 16,1 km/h (3 Bft) 97,83 %
17.12.2020 05:02 9,1 C 8,3 C 7,7 C 95 % 1014,1 hPa 0,0 l/m 0 min 0 min 0 W/m 3,2 km/h (1 Bft) 97,87 %
17.12.2020 05:04 9,1 C 8,3 C 7,7 C 95 % 1014,1 hPa 0,0 l/m 0 min 0 min 0 W/m 6,4 km/h (2 Bft) 97,87 %
17.12.2020 05:06 9,0 C 8,3 C 7,7 C 95 % 1014,1 hPa 0,0 l/m 0 min 0 min 0 W/m 0,0 km/h (0 Bft) 93,62 %
17.12.2020 05:08 9,0 C 8,3 C 7,7 C 95 % 1014,1 hPa 0,0 l/m 0 min 0 min 0 W/m 3,2 km/h (1 Bft) 95,74 %
17.12.2020 05:10 9,0 C 8,3 C 7,7 C 95 % 1014,1 hPa 0,0 l/m 0 min 0 min 0 W/m 0,0 km/h (0 Bft) 95,65 %
17.12.2020 05:12 9,0 C 8,3 C 7,7 C 95 % 1014,1 hPa 0,0 l/m 0 min 0 min 0 W/m 19,3 km/h (3 Bft) 95,74 %
17.12.2020 05:14 9,0 C 8,3 C 7,7 C 95 % 1014,1 hPa 0,0 l/m 0 min 0 min 0 W/m 3,2 km/h (1 Bft) 95,74 %
17.12.2020 05:16 9,0 C 8,3 C 7,7 C 95 % 1014,2 hPa 0,0 l/m 0 min 0 min 0 W/m 0,0 km/h (0 Bft) 95,74 %
17.12.2020 05:18 9,0 C 8,3 C 7,7 C 95 % 1014,1 hPa 0,0 l/m 0 min 0 min 0 W/m 0,0 km/h (0 Bft) 97,87 %
17.12.2020 05:20 9,0 C 8,3 C 7,7 C 95 % 1014,1 hPa 0,0 l/m 0 min 0 min 0 W/m 3,2 km/h (1 Bft) 97,87 %
17.12.2020 05:22 9,0 C 8,3 C 7,7 C 95 % 1014,2 hPa 0,0 l/m 0 min 0 min 0 W/m 19,3 km/h (3 Bft) 97,83 %
17.12.2020 05:24 9,0 C 8,3 C 7,7 C 95 % 1014,2 hPa 0,0 l/m 0 min 0 min 0 W/m 3,2 km/h (1 Bft) 95,74 %
17.12.2020 05:26 9,0 C 8,3 C 7,7 C 95 % 1014,2 hPa 0,0 l/m 0 min 0 min 0 W/m 12,9 km/h (3 Bft) 97,87 %
17.12.2020 05:28 9,0 C 8,3 C 7,7 C 95 % 1014,3 hPa 0,0 l/m 0 min 0 min 0 W/m 0,0 km/h (0 Bft) 97,87 %
17.12.2020 05:30 9,0 C 8,3 C 7,7 C 95 % 1014,3 hPa 0,0 l/m 0 min 0 min 0 W/m 3,2 km/h (1 Bft) 97,87 %
17.12.2020 05:32 9,0 C 8,3 C 7,7 C 95 % 1014,3 hPa 0,0 l/m 0 min 0 min 0 W/m 3,2 km/h (1 Bft) 97,87 %
17.12.2020 05:34 9,0 C 8,3 C 7,7 C 95 % 1014,3 hPa 0,0 l/m 0 min 0 min 0 W/m 3,2 km/h (1 Bft) 95,65 %
17.12.2020 05:36 9,0 C 8,3 C 7,7 C 95 % 1014,3 hPa 0,0 l/m 0 min 0 min 0 W/m 6,4 km/h (2 Bft) 97,87 %
17.12.2020 05:38 9,0 C 8,3 C 7,7 C 95 % 1014,4 hPa 0,0 l/m 0 min 0 min 0 W/m 0,0 km/h (0 Bft) 97,67 %
17.12.2020 05:40 9,0 C 8,3 C 7,7 C 95 % 1014,3 hPa 0,0 l/m 0 min 0 min 0 W/m 0,0 km/h (0 Bft) 96,00 %
17.12.2020 05:42 9,0 C 8,3 C 7,7 C 95 % 1014,4 hPa 0,0 l/m 0 min 0 min 0 W/m 0,0 km/h (0 Bft) 97,83 %
17.12.2020 05:44 9,0 C 8,3 C 7,7 C 95 % 1014,4 hPa 0,0 l/m 0 min 0 min 0 W/m 0,0 km/h (0 Bft) 97,87 %
17.12.2020 05:46 9,0 C 8,3 C 7,7 C 95 % 1014,4 hPa 0,0 l/m 0 min 0 min 0 W/m 3,2 km/h (1 Bft) 100,00 %
17.12.2020 05:48 9,0 C 8,3 C 7,7 C 95 % 1014,4 hPa 0,0 l/m 0 min 0 min 0 W/m 0,0 km/h (0 Bft) 100,00 %
17.12.2020 05:50 9,0 C 8,3 C 7,7 C 95 % 1014,4 hPa 0,0 l/m 0 min 0 min 0 W/m 0,0 km/h (0 Bft) 100,00 %
17.12.2020 05:52 9,0 C 8,3 C 7,7 C 95 % 1014,4 hPa 0,0 l/m 0 min 0 min 0 W/m 3,2 km/h (1 Bft) 100,00 %
17.12.2020 05:54 9,0 C 8,3 C 7,7 C 95 % 1014,4 hPa 0,0 l/m 0 min 0 min 0 W/m 0,0 km/h (0 Bft) 95,65 %
17.12.2020 05:56 9,0 C 8,3 C 7,7 C 95 % 1014,4 hPa 0,0 l/m 0 min 0 min 0 W/m 0,0 km/h (0 Bft) 95,74 %
17.12.2020 05:58 9,0 C 8,3 C 7,7 C 95 % 1014,4 hPa 0,0 l/m 0 min 0 min 0 W/m 0,0 km/h (0 Bft) 95,74 %
17.12.2020 06:00 9,0 C 8,3 C 7,7 C 95 % 1014,5 hPa 0,0 l/m 0 min 0 min 0 W/m 6,4 km/h (2 Bft) 97,87 %
17.12.2020 06:02 9,0 C 8,3 C 7,7 C 95 % 1014,5 hPa 0,0 l/m 0 min 0 min 0 W/m 0,0 km/h (0 Bft) 95,74 %
17.12.2020 06:04 9,0 C 8,3 C 7,7 C 95 % 1014,4 hPa 0,0 l/m 0 min 0 min 0 W/m 0,0 km/h (0 Bft) 97,87 %
17.12.2020 06:08 9,0 C 8,3 C 7,7 C 95 % 1014,5 hPa 0,0 l/m 0 min 0 min 0 W/m 0,0 km/h (0 Bft) 97,87 %
17.12.2020 06:10 9,0 C 8,3 C 7,7 C 95 % 1014,5 hPa 0,0 l/m 0 min 2 min 0 W/m 3,2 km/h (1 Bft) 97,87 %
17.12.2020 06:12 9,0 C 8,3 C 7,7 C 95 % 1014,5 hPa 0,0 l/m 0 min 0 min 0 W/m 3,2 km/h (1 Bft) 95,74 %
17.12.2020 06:14 9,0 C 7,8 C 7,7 C 95 % 1014,6 hPa 0,0 l/m 0 min 2 min 0 W/m 0,0 km/h (0 Bft) 97,87 %
17.12.2020 06:16 9,0 C 7,8 C 7,7 C 95 % 1014,6 hPa 0,0 l/m 0 min 0 min 0 W/m 0,0 km/h (0 Bft) 95,65 %
17.12.2020 06:18 9,0 C 7,8 C 7,7 C 95 % 1014,6 hPa 0,2 l/m 0 min 2 min 0 W/m 0,0 km/h (0 Bft) 97,87 %
17.12.2020 06:20 9,0 C 7,8 C 7,7 C 95 % 1014,6 hPa 0,0 l/m 0 min 2 min 0 W/m 16,1 km/h (3 Bft) 95,74 %
17.12.2020 06:22 9,0 C 7,8 C 7,7 C 95 % 1014,7 hPa 0,0 l/m 0 min 2 min 0 W/m 3,2 km/h (1 Bft) 93,62 %
17.12.2020 06:24 9,0 C 7,8 C 7,7 C 95 % 1014,7 hPa 0,0 l/m 0 min 2 min 0 W/m 3,2 km/h (1 Bft) 97,87 %
17.12.2020 06:26 9,0 C 7,8 C 7,7 C 95 % 1014,7 hPa 0,0 l/m 0 min 2 min 0 W/m 3,2 km/h (1 Bft) 97,87 %
17.12.2020 06:28 9,0 C 7,8 C 7,7 C 95 % 1014,7 hPa 0,0 l/m 0 min 2 min 0 W/m 0,0 km/h (0 Bft) 97,87 %
17.12.2020 06:30 9,0 C 7,8 C 7,7 C 95 % 1014,7 hPa 0,0 l/m 0 min 2 min 0 W/m 0,0 km/h (0 Bft) 97,83 %
17.12.2020 06:32 9,0 C 7,8 C 7,7 C 95 % 1014,7 hPa 0,0 l/m 0 min 2 min 0 W/m 0,0 km/h (0 Bft) 95,74 %
17.12.2020 06:34 9,1 C 7,8 C 7,7 C 95 % 1014,8 hPa 0,0 l/m 0 min 2 min 0 W/m 0,0 km/h (0 Bft) 95,74 %
17.12.2020 06:36 9,1 C 7,8 C 7,7 C 95 % 1014,7 hPa 0,0 l/m 0 min 2 min 0 W/m 0,0 km/h (0 Bft) 97,87 %
17.12.2020 06:38 9,1 C 7,8 C 7,7 C 95 % 1014,8 hPa 0,0 l/m 0 min 2 min 0 W/m 12,9 km/h (3 Bft) 97,87 %
17.12.2020 06:40 9,1 C 7,8 C 7,7 C 95 % 1014,9 hPa 0,0 l/m 0 min 2 min 0 W/m 0,0 km/h (0 Bft) 100,00 %
17.12.2020 06:42 9,1 C 7,8 C 7,7 C 95 % 1015,0 hPa 0,0 l/m 0 min 2 min 0 W/m 0,0 km/h (0 Bft) 100,00 %
17.12.2020 06:44 9,1 C 7,8 C 7,7 C 95 % 1015,0 hPa 0,0 l/m 0 min 2 min 0 W/m 12,9 km/h (3 Bft) 97,87 %
17.12.2020 06:46 9,1 C 7,8 C 7,7 C 96 % 1015,0 hPa 0,0 l/m 0 min 2 min 0 W/m 3,2 km/h (1 Bft) 50,00 %
17.12.2020 06:48 9,1 C 7,8 C 7,7 C 96 % 1015,0 hPa 0,2 l/m 0 min 2 min 0 W/m 0,0 km/h (0 Bft) 100,00 %
17.12.2020 06:50 9,1 C 7,8 C 7,7 C 96 % 1015,0 hPa 0,0 l/m 0 min 2 min 0 W/m 16,1 km/h (3 Bft) 100,00 %
17.12.2020 06:52 9,1 C 7,8 C 7,7 C 96 % 1015,1 hPa 0,0 l/m 0 min 2 min 0 W/m 0,0 km/h (0 Bft) 100,00 %
17.12.2020 06:54 9,1 C 7,8 C 7,7 C 96 % 1015,1 hPa 0,0 l/m 0 min 2 min 0 W/m 0,0 km/h (0 Bft) 100,00 %
17.12.2020 06:56 9,1 C 7,8 C 7,7 C 96 % 1015,1 hPa 0,0 l/m 0 min 2 min 0 W/m 0,0 km/h (0 Bft) 100,00 %
17.12.2020 06:58 9,2 C 7,8 C 7,7 C 96 % 1015,1 hPa 0,0 l/m 0 min 2 min 0 W/m 0,0 km/h (0 Bft) 97,87 %
17.12.2020 07:00 9,2 C 7,8 C 7,7 C 96 % 1015,2 hPa 0,2 l/m 0 min 2 min 0 W/m 0,0 km/h (0 Bft) 97,87 %
17.12.2020 07:02 9,2 C 7,8 C 7,7 C 96 % 1015,2 hPa 0,0 l/m 0 min 2 min 0 W/m 0,0 km/h (0 Bft) 97,92 %
17.12.2020 07:04 9,2 C 7,8 C 7,7 C 96 % 1015,2 hPa 0,0 l/m 0 min 2 min 0 W/m 0,0 km/h (0 Bft) 100,00 %
17.12.2020 07:06 9,2 C 7,8 C 7,7 C 96 % 1015,3 hPa 0,0 l/m 0 min 2 min 0 W/m 6,4 km/h (2 Bft) 100,00 %
17.12.2020 07:08 9,2 C 7,8 C 7,7 C 96 % 1015,3 hPa 0,0 l/m 0 min 2 min 0 W/m 16,1 km/h (3 Bft) 97,87 %
17.12.2020 07:10 9,2 C 7,8 C 7,7 C 96 % 1015,3 hPa 0,2 l/m 0 min 2 min 0 W/m 12,9 km/h (3 Bft) 97,87 %
17.12.2020 07:12 9,2 C 7,8 C 7,7 C 96 % 1015,4 hPa 0,0 l/m 0 min 2 min 0 W/m 16,1 km/h (3 Bft) 100,00 %
17.12.2020 07:14 9,2 C 7,8 C 7,7 C 96 % 1015,4 hPa 0,0 l/m 0 min 2 min 0 W/m 0,0 km/h (0 Bft) 100,00 %
17.12.2020 07:16 9,2 C 7,8 C 7,7 C 96 % 1015,4 hPa 0,0 l/m 0 min 2 min 0 W/m 16,1 km/h (3 Bft) 97,83 %
17.12.2020 07:18 9,2 C 7,8 C 7,7 C 96 % 1015,5 hPa 0,0 l/m 0 min 2 min 0 W/m 6,4 km/h (2 Bft) 97,87 %
17.12.2020 07:20 9,2 C 7,8 C 7,7 C 96 % 1015,5 hPa 0,0 l/m 0 min 2 min 0 W/m 16,1 km/h (3 Bft) 97,87 %
17.12.2020 07:22 9,2 C 7,8 C 7,7 C 96 % 1015,6 hPa 0,2 l/m 0 min 2 min 0 W/m 19,3 km/h (3 Bft) 97,87 %
17.12.2020 07:24 9,2 C 7,8 C 7,7 C 96 % 1015,7 hPa 0,0 l/m 0 min 2 min 0 W/m 22,5 km/h (4 Bft) 95,74 %
17.12.2020 07:26 9,3 C 7,8 C 7,7 C 96 % 1015,7 hPa 0,0 l/m 0 min 2 min 0 W/m 29,0 km/h (5 Bft) 97,87 %
17.12.2020 07:28 9,3 C 8,3 C 7,7 C 96 % 1015,7 hPa 0,2 l/m 0 min 2 min 0 W/m 22,5 km/h (4 Bft) 97,87 %
17.12.2020 07:30 9,3 C 8,3 C 7,7 C 96 % 1015,8 hPa 0,0 l/m 0 min 2 min 0 W/m 19,3 km/h (3 Bft) 93,48 %
17.12.2020 07:32 9,3 C 8,3 C 7,7 C 97 % 1015,7 hPa 0,2 l/m 0 min 2 min 0 W/m 12,9 km/h (3 Bft) 93,62 %
17.12.2020 07:34 9,4 C 8,3 C 7,7 C 97 % 1015,7 hPa 0,0 l/m 0 min 2 min 0 W/m 25,7 km/h (4 Bft) 95,74 %
17.12.2020 07:36 9,4 C 8,3 C 7,7 C 97 % 1015,8 hPa 0,0 l/m 0 min 2 min 0 W/m 29,0 km/h (5 Bft) 95,74 %
17.12.2020 07:38 9,4 C 8,3 C 7,7 C 97 % 1015,8 hPa 0,0 l/m 0 min 2 min 0 W/m 22,5 km/h (4 Bft) 95,74 %
17.12.2020 07:40 9,4 C 8,3 C 7,7 C 97 % 1015,8 hPa 0,0 l/m 0 min 2 min 0 W/m 22,5 km/h (4 Bft) 93,48 %
17.12.2020 07:42 9,4 C 8,3 C 7,7 C 97 % 1015,8 hPa 0,0 l/m 0 min 2 min 0 W/m 12,9 km/h (3 Bft) 95,74 %
17.12.2020 07:44 9,5 C 8,3 C 7,7 C 97 % 1015,8 hPa 0,2 l/m 0 min 2 min 0 W/m 19,3 km/h (3 Bft) 93,62 %
17.12.2020 07:46 9,5 C 8,3 C 8,3 C 97 % 1015,8 hPa 0,0 l/m 0 min 2 min 0 W/m 38,6 km/h (5 Bft) 95,74 %
17.12.2020 07:48 9,5 C 8,3 C 8,3 C 97 % 1015,9 hPa 0,0 l/m 0 min 2 min 0 W/m 22,5 km/h (4 Bft) 95,74 %
17.12.2020 07:50 9,5 C 8,3 C 8,3 C 97 % 1015,9 hPa 0,0 l/m 0 min 2 min 0 W/m 29,0 km/h (5 Bft) 95,74 %
17.12.2020 07:52 9,5 C 8,3 C 8,3 C 97 % 1015,9 hPa 0,0 l/m 0 min 2 min 0 W/m 35,4 km/h (5 Bft) 95,65 %
17.12.2020 07:54 9,5 C 8,3 C 8,3 C 97 % 1016,0 hPa 0,0 l/m 0 min 2 min 0 W/m 25,7 km/h (4 Bft) 95,74 %
17.12.2020 07:56 9,5 C 8,3 C 8,3 C 97 % 1016,1 hPa 0,0 l/m 0 min 2 min 0 W/m 22,5 km/h (4 Bft) 93,62 %
17.12.2020 07:58 9,5 C 8,3 C 8,3 C 97 % 1016,1 hPa 0,0 l/m 0 min 2 min 0 W/m 19,3 km/h (3 Bft) 93,62 %
17.12.2020 08:00 9,5 C 8,3 C 8,3 C 97 % 1016,1 hPa 0,0 l/m 0 min 2 min 0 W/m 29,0 km/h (5 Bft) 93,62 %
17.12.2020 08:02 9,5 C 8,3 C 8,3 C 97 % 1016,1 hPa 0,0 l/m 0 min 2 min 0 W/m 25,7 km/h (4 Bft) 95,74 %
17.12.2020 08:04 9,5 C 8,3 C 8,3 C 97 % 1016,2 hPa 0,2 l/m 0 min 2 min 0 W/m 25,7 km/h (4 Bft) 95,65 %
17.12.2020 08:06 9,5 C 8,3 C 8,3 C 97 % 1016,2 hPa 0,0 l/m 0 min 2 min 0 W/m 25,7 km/h (4 Bft) 95,74 %
17.12.2020 08:08 9,5 C 8,3 C 8,3 C 97 % 1016,2 hPa 0,0 l/m 0 min 2 min 0 W/m 32,2 km/h (5 Bft) 95,74 %
17.12.2020 08:10 9,5 C 8,3 C 8,3 C 97 % 1016,2 hPa 0,0 l/m 0 min 2 min 0 W/m 29,0 km/h (5 Bft) 95,74 %
17.12.2020 08:12 9,5 C 8,3 C 8,3 C 97 % 1016,3 hPa 0,0 l/m 0 min 2 min 0 W/m 19,3 km/h (3 Bft) 95,74 %
17.12.2020 08:14 9,5 C 8,3 C 8,3 C 97 % 1016,4 hPa 0,0 l/m 0 min 2 min 0 W/m 22,5 km/h (4 Bft) 95,74 %
17.12.2020 08:16 9,5 C 8,3 C 7,7 C 97 % 1016,4 hPa 0,0 l/m 0 min 2 min 0 W/m 29,0 km/h (5 Bft) 96,00 %
17.12.2020 08:18 9,5 C 8,3 C 7,7 C 97 % 1016,5 hPa 0,0 l/m 0 min 2 min 0 W/m 22,5 km/h (4 Bft) 97,87 %
17.12.2020 08:20 9,5 C 8,3 C 7,7 C 97 % 1016,5 hPa 0,0 l/m 0 min 2 min 0 W/m 19,3 km/h (3 Bft) 97,83 %
17.12.2020 08:22 9,5 C 8,3 C 7,7 C 97 % 1016,5 hPa 0,0 l/m 0 min 2 min 0 W/m 32,2 km/h (5 Bft) 97,87 %
17.12.2020 08:24 9,5 C 8,3 C 7,7 C 97 % 1016,5 hPa 0,0 l/m 0 min 2 min 0 W/m 32,2 km/h (5 Bft) 97,87 %
17.12.2020 08:26 9,4 C 8,3 C 7,7 C 97 % 1016,6 hPa 0,0 l/m 0 min 0 min 0 W/m 29,0 km/h (5 Bft) 95,74 %
17.12.2020 08:28 9,4 C 8,3 C 7,7 C 97 % 1016,6 hPa 0,0 l/m 0 min 0 min 0 W/m 29,0 km/h (5 Bft) 93,62 %
17.12.2020 08:30 9,4 C 8,3 C 7,7 C 97 % 1016,7 hPa 0,0 l/m 0 min 0 min 0 W/m 25,7 km/h (4 Bft) 97,83 %
17.12.2020 08:32 9,4 C 8,3 C 7,7 C 97 % 1016,7 hPa 0,0 l/m 0 min 2 min 0 W/m 29,0 km/h (5 Bft) 97,87 %
17.12.2020 08:34 9,4 C 8,3 C 7,7 C 97 % 1016,7 hPa 0,0 l/m 0 min 2 min 0 W/m 22,5 km/h (4 Bft) 97,87 %
17.12.2020 08:36 9,4 C 8,3 C 7,7 C 97 % 1016,8 hPa 0,0 l/m 0 min 2 min 0 W/m 32,2 km/h (5 Bft) 97,87 %
17.12.2020 08:38 9,4 C 8,3 C 7,7 C 97 % 1016,9 hPa 0,0 l/m 0 min 2 min 0 W/m 32,2 km/h (5 Bft) 97,87 %
17.12.2020 08:40 9,3 C 8,3 C 7,7 C 97 % 1016,9 hPa 0,0 l/m 0 min 2 min 0 W/m 25,7 km/h (4 Bft) 95,74 %
17.12.2020 08:42 9,3 C 8,3 C 7,7 C 97 % 1017,0 hPa 0,2 l/m 0 min 2 min 0 W/m 29,0 km/h (5 Bft) 95,65 %
17.12.2020 08:44 9,3 C 8,3 C 7,7 C 97 % 1017,0 hPa 0,0 l/m 0 min 2 min 0 W/m 32,2 km/h (5 Bft) 95,74 %
17.12.2020 08:46 9,3 C 8,3 C 7,7 C 97 % 1016,9 hPa 0,0 l/m 0 min 2 min 0 W/m 22,5 km/h (4 Bft) 95,74 %
17.12.2020 08:48 9,3 C 8,3 C 7,7 C 97 % 1016,9 hPa 0,0 l/m 0 min 2 min 0 W/m 35,4 km/h (5 Bft) 95,74 %
17.12.2020 08:50 9,3 C 8,3 C 7,7 C 97 % 1017,0 hPa 0,0 l/m 0 min 0 min 0 W/m 25,7 km/h (4 Bft) 95,74 %
17.12.2020 08:52 9,3 C 8,3 C 7,7 C 97 % 1017,0 hPa 0,0 l/m 0 min 0 min 0 W/m 25,7 km/h (4 Bft) 93,62 %
17.12.2020 08:54 9,2 C 8,3 C 7,7 C 97 % 1017,0 hPa 0,0 l/m 0 min 0 min 0 W/m 35,4 km/h (5 Bft) 95,65 %
17.12.2020 08:56 9,2 C 8,3 C 7,7 C 97 % 1017,1 hPa 0,0 l/m 0 min 0 min 4 W/m 29,0 km/h (5 Bft) 95,74 %
17.12.2020 08:58 9,2 C 8,3 C 7,7 C 97 % 1017,1 hPa 0,0 l/m 0 min 0 min 5 W/m 19,3 km/h (3 Bft) 95,74 %
17.12.2020 09:00 9,2 C 8,3 C 7,7 C 97 % 1017,2 hPa 0,0 l/m 0 min 0 min 5 W/m 25,7 km/h (4 Bft) 95,74 %
17.12.2020 09:02 9,2 C 8,3 C 7,7 C 97 % 1017,1 hPa 0,0 l/m 0 min 0 min 6 W/m 25,7 km/h (4 Bft) 93,62 %
17.12.2020 09:04 9,2 C 8,3 C 7,7 C 97 % 1017,2 hPa 0,0 l/m 0 min 0 min 5 W/m 25,7 km/h (4 Bft) 95,74 %
17.12.2020 09:06 9,1 C 8,3 C 7,7 C 97 % 1017,2 hPa 0,0 l/m 0 min 0 min 6 W/m 19,3 km/h (3 Bft) 93,48 %
17.12.2020 09:08 9,2 C 8,3 C 7,7 C 97 % 1017,3 hPa 0,0 l/m 0 min 0 min 8 W/m 22,5 km/h (4 Bft) 93,62 %
17.12.2020 09:10 9,1 C 8,3 C 7,7 C 97 % 1017,2 hPa 0,0 l/m 0 min 0 min 10 W/m 16,1 km/h (3 Bft) 93,62 %
17.12.2020 09:12 9,1 C 8,3 C 7,7 C 97 % 1017,3 hPa 0,0 l/m 0 min 0 min 12 W/m 19,3 km/h (3 Bft) 95,74 %
17.12.2020 09:14 9,1 C 8,3 C 7,7 C 97 % 1017,4 hPa 0,0 l/m 0 min 0 min 12 W/m 25,7 km/h (4 Bft) 95,74 %
17.12.2020 09:16 9,1 C 8,3 C 7,7 C 97 % 1017,5 hPa 0,0 l/m 0 min 0 min 12 W/m 22,5 km/h (4 Bft) 93,62 %
17.12.2020 09:18 9,1 C 8,3 C 7,7 C 97 % 1017,4 hPa 0,0 l/m 0 min 0 min 12 W/m 29,0 km/h (5 Bft) 93,48 %
17.12.2020 09:20 9,1 C 8,3 C 7,7 C 97 % 1017,4 hPa 0,0 l/m 0 min 0 min 12 W/m 22,5 km/h (4 Bft) 95,74 %
17.12.2020 09:22 9,1 C 8,3 C 7,7 C 97 % 1017,4 hPa 0,0 l/m 0 min 0 min 12 W/m 29,0 km/h (5 Bft) 95,74 %
17.12.2020 09:24 9,0 C 7,8 C 7,7 C 97 % 1017,4 hPa 0,0 l/m 0 min 0 min 13 W/m 22,5 km/h (4 Bft) 93,62 %
17.12.2020 09:26 9,0 C 7,8 C 7,7 C 97 % 1017,5 hPa 0,0 l/m 0 min 0 min 14 W/m 25,7 km/h (4 Bft) 91,49 %
17.12.2020 09:28 9,0 C 7,8 C 7,7 C 97 % 1017,5 hPa 0,0 l/m 0 min 0 min 15 W/m 22,5 km/h (4 Bft) 95,74 %
17.12.2020 09:30 9,0 C 7,8 C 7,7 C 97 % 1017,5 hPa 0,0 l/m 0 min 0 min 17 W/m 19,3 km/h (3 Bft) 97,83 %
17.12.2020 09:32 9,0 C 7,8 C 7,7 C 97 % 1017,6 hPa 0,0 l/m 0 min 0 min 20 W/m 22,5 km/h (4 Bft) 97,87 %
17.12.2020 09:34 9,0 C 7,8 C 7,7 C 97 % 1017,6 hPa 0,0 l/m 0 min 0 min 22 W/m 22,5 km/h (4 Bft) 95,74 %
17.12.2020 09:36 8,9 C 7,8 C 7,7 C 97 % 1017,7 hPa 0,0 l/m 0 min 0 min 25 W/m 19,3 km/h (3 Bft) 97,87 %
17.12.2020 09:38 8,9 C 7,8 C 7,7 C 97 % 1017,8 hPa 0,0 l/m 0 min 0 min 24 W/m 19,3 km/h (3 Bft) 97,87 %
17.12.2020 09:41 8,9 C 7,8 C 7,7 C 97 % 1017,8 hPa 0,0 l/m 0 min 0 min 20 W/m 29,0 km/h (5 Bft) 97,37 %
17.12.2020 09:42 8,9 C 7,8 C 7,7 C 97 % 1017,8 hPa 0,0 l/m 0 min 0 min 17 W/m 16,1 km/h (3 Bft) 100,00 %
17.12.2020 09:44 8,9 C 7,8 C 7,7 C 97 % 1017,8 hPa 0,0 l/m 0 min 0 min 16 W/m 22,5 km/h (4 Bft) 97,87 %
17.12.2020 09:46 8,9 C 7,8 C 7,7 C 97 % 1017,9 hPa 0,0 l/m 0 min 0 min 14 W/m 12,9 km/h (3 Bft) 97,87 %
17.12.2020 09:48 8,9 C 7,8 C 7,7 C 97 % 1017,9 hPa 0,0 l/m 0 min 0 min 13 W/m 22,5 km/h (4 Bft) 97,87 %
17.12.2020 09:50 8,9 C 7,8 C 7,2 C 97 % 1017,9 hPa 0,0 l/m 0 min 0 min 14 W/m 6,4 km/h (2 Bft) 97,87 %
17.12.2020 09:52 8,9 C 7,8 C 7,2 C 97 % 1017,9 hPa 0,0 l/m 0 min 0 min 15 W/m 16,1 km/h (3 Bft) 95,65 %
17.12.2020 09:54 8,8 C 7,8 C 7,7 C 97 % 1018,0 hPa 0,0 l/m 0 min 0 min 19 W/m 16,1 km/h (3 Bft) 97,87 %
17.12.2020 09:56 8,8 C 7,8 C 7,2 C 97 % 1017,9 hPa 0,0 l/m 0 min 0 min 23 W/m 19,3 km/h (3 Bft) 97,87 %
17.12.2020 09:58 8,8 C 7,8 C 7,2 C 97 % 1018,0 hPa 0,0 l/m 0 min 0 min 27 W/m 12,9 km/h (3 Bft) 95,74 %
17.12.2020 10:00 8,8 C 7,8 C 7,7 C 97 % 1018,0 hPa 0,0 l/m 0 min 0 min 32 W/m 16,1 km/h (3 Bft) 95,74 %
17.12.2020 10:02 8,8 C 7,8 C 7,7 C 97 % 1018,0 hPa 0,0 l/m 0 min 0 min 38 W/m 16,1 km/h (3 Bft) 95,74 %
17.12.2020 10:04 8,8 C 7,8 C 7,7 C 97 % 1018,1 hPa 0,0 l/m 0 min 0 min 44 W/m 12,9 km/h (3 Bft) 97,87 %
17.12.2020 10:06 8,8 C 7,8 C 7,7 C 97 % 1018,1 hPa 0,0 l/m 0 min 0 min 44 W/m 12,9 km/h (3 Bft) 97,87 %
17.12.2020 10:08 8,8 C 7,8 C 7,7 C 97 % 1018,1 hPa 0,0 l/m 0 min 0 min 39 W/m 16,1 km/h (3 Bft) 100,00 %
17.12.2020 10:10 8,8 C 7,8 C 7,7 C 97 % 1018,2 hPa 0,0 l/m 0 min 0 min 37 W/m 12,9 km/h (3 Bft) 95,74 %
17.12.2020 10:12 8,8 C 8,3 C 7,7 C 97 % 1018,1 hPa 0,0 l/m 0 min 0 min 51 W/m 16,1 km/h (3 Bft) 93,62 %
17.12.2020 10:14 8,8 C 8,3 C 7,7 C 97 % 1018,2 hPa 0,0 l/m 0 min 0 min 63 W/m 12,9 km/h (3 Bft) 95,65 %
17.12.2020 10:16 8,8 C 8,3 C 7,7 C 97 % 1018,2 hPa 0,0 l/m 0 min 0 min 63 W/m 16,1 km/h (3 Bft) 97,87 %
17.12.2020 10:18 8,8 C 8,3 C 7,7 C 97 % 1018,3 hPa 0,0 l/m 0 min 0 min 58 W/m 19,3 km/h (3 Bft) 97,87 %
17.12.2020 10:20 8,8 C 8,3 C 7,7 C 97 % 1018,3 hPa 0,0 l/m 0 min 0 min 55 W/m 22,5 km/h (4 Bft) 93,62 %
17.12.2020 10:22 8,8 C 8,3 C 7,7 C 96 % 1018,3 hPa 0,0 l/m 0 min 0 min 53 W/m 16,1 km/h (3 Bft) 95,74 %
17.12.2020 10:24 8,9 C 8,3 C 7,7 C 96 % 1018,4 hPa 0,0 l/m 0 min 0 min 58 W/m 29,0 km/h (5 Bft) 95,74 %
17.12.2020 10:26 8,9 C 8,3 C 7,7 C 96 % 1018,5 hPa 0,0 l/m 0 min 0 min 63 W/m 22,5 km/h (4 Bft) 93,48 %
17.12.2020 10:28 8,9 C 8,3 C 7,7 C 96 % 1018,5 hPa 0,0 l/m 0 min 0 min 63 W/m 22,5 km/h (4 Bft) 95,74 %
17.12.2020 10:30 8,9 C 8,3 C 7,7 C 96 % 1018,5 hPa 0,0 l/m 0 min 0 min 59 W/m 25,7 km/h (4 Bft) 95,74 %
17.12.2020 10:32 8,9 C 8,3 C 7,7 C 96 % 1018,6 hPa 0,0 l/m 0 min 0 min 61 W/m 19,3 km/h (3 Bft) 95,74 %
17.12.2020 10:34 8,9 C 8,3 C 7,7 C 96 % 1018,6 hPa 0,0 l/m 0 min 0 min 63 W/m 25,7 km/h (4 Bft) 95,74 %
17.12.2020 10:36 9,0 C 8,3 C 7,7 C 96 % 1018,6 hPa 0,0 l/m 0 min 0 min 57 W/m 22,5 km/h (4 Bft) 95,74 %
17.12.2020 10:38 9,0 C 8,3 C 7,7 C 96 % 1018,6 hPa 0,0 l/m 0 min 0 min 54 W/m 25,7 km/h (4 Bft) 95,65 %
17.12.2020 10:40 9,0 C 8,3 C 7,7 C 96 % 1018,7 hPa 0,0 l/m 0 min 0 min 53 W/m 35,4 km/h (5 Bft) 95,74 %
17.12.2020 10:42 9,0 C 8,3 C 7,7 C 96 % 1018,7 hPa 0,0 l/m 0 min 0 min 62 W/m 29,0 km/h (5 Bft) 93,62 %
17.12.2020 10:44 9,1 C 8,3 C 7,7 C 96 % 1018,7 hPa 0,0 l/m 0 min 0 min 51 W/m 16,1 km/h (3 Bft) 95,74 %
17.12.2020 10:46 9,1 C 8,3 C 7,7 C 95 % 1018,7 hPa 0,0 l/m 0 min 0 min 38 W/m 22,5 km/h (4 Bft) 95,74 %
17.12.2020 10:48 9,1 C 8,3 C 7,7 C 95 % 1018,8 hPa 0,0 l/m 0 min 0 min 31 W/m 19,3 km/h (3 Bft) 95,74 %
17.12.2020 10:50 9,2 C 8,3 C 7,7 C 95 % 1018,8 hPa 0,0 l/m 0 min 0 min 35 W/m 19,3 km/h (3 Bft) 96,08 %
17.12.2020 10:52 9,2 C 8,3 C 7,7 C 95 % 1018,8 hPa 0,0 l/m 0 min 0 min 45 W/m 19,3 km/h (3 Bft) 93,48 %
17.12.2020 10:54 9,2 C 8,3 C 7,7 C 95 % 1018,9 hPa 0,0 l/m 0 min 0 min 37 W/m 35,4 km/h (5 Bft) 97,87 %
17.12.2020 10:56 9,2 C 8,3 C 7,7 C 95 % 1018,9 hPa 0,0 l/m 0 min 0 min 29 W/m 25,7 km/h (4 Bft) 95,74 %
17.12.2020 10:58 9,3 C 8,3 C 7,7 C 95 % 1019,0 hPa 0,0 l/m 0 min 0 min 32 W/m 19,3 km/h (3 Bft) 97,87 %
17.12.2020 11:00 9,3 C 8,3 C 7,7 C 94 % 1019,0 hPa 0,0 l/m 0 min 0 min 39 W/m 29,0 km/h (5 Bft) 97,87 %
17.12.2020 11:02 9,3 C 8,3 C 7,7 C 94 % 1019,0 hPa 0,0 l/m 0 min 0 min 36 W/m 25,7 km/h (4 Bft) 97,87 %
17.12.2020 11:04 9,3 C 8,3 C 7,7 C 94 % 1019,0 hPa 0,0 l/m 0 min 0 min 45 W/m 25,7 km/h (4 Bft) 97,96 %
17.12.2020 11:06 9,3 C 8,3 C 7,7 C 94 % 1019,1 hPa 0,0 l/m 0 min 0 min 41 W/m 29,0 km/h (5 Bft) 95,74 %
17.12.2020 11:08 9,3 C 8,3 C 7,7 C 94 % 1019,1 hPa 0,0 l/m 0 min 0 min 35 W/m 32,2 km/h (5 Bft) 97,87 %
17.12.2020 11:10 9,4 C 8,3 C 7,7 C 94 % 1019,1 hPa 0,0 l/m 0 min 0 min 30 W/m 29,0 km/h (5 Bft) 97,87 %
17.12.2020 11:12 9,4 C 8,3 C 7,7 C 94 % 1019,1 hPa 0,0 l/m 0 min 0 min 32 W/m 29,0 km/h (5 Bft) 97,87 %
17.12.2020 11:14 9,4 C 8,3 C 7,7 C 94 % 1019,2 hPa 0,0 l/m 0 min 0 min 32 W/m 22,5 km/h (4 Bft) 97,83 %
17.12.2020 11:16 9,4 C 8,3 C 7,7 C 93 % 1019,1 hPa 0,0 l/m 0 min 0 min 48 W/m 32,2 km/h (5 Bft) 97,87 %
17.12.2020 11:18 9,4 C 8,3 C 7,7 C 93 % 1019,2 hPa 0,0 l/m 0 min 0 min 65 W/m 25,7 km/h (4 Bft) 97,87 %
17.12.2020 11:20 9,4 C 8,9 C 7,7 C 93 % 1019,2 hPa 0,0 l/m 0 min 0 min 72 W/m 29,0 km/h (5 Bft) 97,87 %
17.12.2020 11:22 9,5 C 8,9 C 7,7 C 93 % 1019,2 hPa 0,0 l/m 0 min 0 min 67 W/m 22,5 km/h (4 Bft) 97,87 %
17.12.2020 11:24 9,5 C 8,9 C 7,7 C 93 % 1019,2 hPa 0,0 l/m 0 min 0 min 53 W/m 19,3 km/h (3 Bft) 97,87 %
17.12.2020 11:26 9,5 C 8,9 C 7,7 C 93 % 1019,2 hPa 0,0 l/m 0 min 0 min 45 W/m 22,5 km/h (4 Bft) 97,83 %
17.12.2020 11:28 9,5 C 8,9 C 7,7 C 93 % 1019,2 hPa 0,0 l/m 0 min 0 min 41 W/m 12,9 km/h (3 Bft) 97,87 %
17.12.2020 11:30 9,5 C 9,4 C 7,7 C 93 % 1019,2 hPa 0,0 l/m 0 min 0 min 49 W/m 32,2 km/h (5 Bft) 97,87 %
17.12.2020 11:32 9,5 C 9,4 C 7,7 C 93 % 1019,2 hPa 0,0 l/m 0 min 0 min 67 W/m 22,5 km/h (4 Bft) 97,87 %
17.12.2020 11:34 9,6 C 9,4 C 7,7 C 92 % 1019,2 hPa 0,0 l/m 0 min 0 min 68 W/m 25,7 km/h (4 Bft) 95,74 %
17.12.2020 11:35 9,6 C 9,4 C 7,7 C 92 % 1019,3 hPa 0,0 l/m 0 min 0 min 72 W/m 25,7 km/h (4 Bft) 98,25 %
17.12.2020 11:38 9,6 C 10,0 C 7,7 C 92 % 1019,3 hPa 0,0 l/m 0 min 0 min 106 W/m 32,2 km/h (5 Bft) 95,45 %
17.12.2020 11:40 9,6 C 10,0 C 8,3 C 92 % 1019,3 hPa 0,0 l/m 0 min 0 min 131 W/m 12,9 km/h (3 Bft) 93,88 %
17.12.2020 11:42 9,7 C 10,0 C 8,3 C 92 % 1019,3 hPa 0,0 l/m 0 min 0 min 115 W/m 22,5 km/h (4 Bft) 91,43 %
17.12.2020 11:44 9,7 C 9,4 C 8,3 C 92 % 1019,3 hPa 0,0 l/m 0 min 0 min 91 W/m 25,7 km/h (4 Bft) 94,92 %
17.12.2020 11:46 9,8 C 9,4 C 8,3 C 92 % 1019,3 hPa 0,0 l/m 0 min 0 min 82 W/m 32,2 km/h (5 Bft) 97,14 %
17.12.2020 11:48 9,8 C 10,0 C 8,3 C 92 % 1019,3 hPa 0,0 l/m 0 min 0 min 105 W/m 25,7 km/h (4 Bft) 93,22 %
17.12.2020 11:50 9,8 C 10,0 C 8,3 C 92 % 1019,3 hPa 0,0 l/m 0 min 0 min 95 W/m 25,7 km/h (4 Bft) 93,48 %
17.12.2020 11:52 9,8 C 10,0 C 8,3 C 91 % 1019,3 hPa 0,0 l/m 0 min 0 min 94 W/m 32,2 km/h (5 Bft) 94,44 %
17.12.2020 11:54 9,9 C 10,0 C 8,3 C 91 % 1019,3 hPa 0,0 l/m 0 min 0 min 124 W/m 29,0 km/h (5 Bft) 93,10 %
17.12.2020 11:56 9,9 C 10,6 C 8,3 C 91 % 1019,3 hPa 0,0 l/m 0 min 0 min 133 W/m 19,3 km/h (3 Bft) 94,29 %
17.12.2020 11:58 9,9 C 10,6 C 8,3 C 91 % 1019,4 hPa 0,0 l/m 0 min 0 min 139 W/m 32,2 km/h (5 Bft) 96,61 %
17.12.2020 12:00 10,0 C 10,6 C 8,3 C 91 % 1019,4 hPa 0,0 l/m 0 min 0 min 139 W/m 29,0 km/h (5 Bft) 94,29 %
17.12.2020 12:02 10,0 C 10,0 C 8,3 C 91 % 1019,3 hPa 0,0 l/m 0 min 0 min 100 W/m 22,5 km/h (4 Bft) 95,74 %
17.12.2020 12:04 10,0 C 10,0 C 8,3 C 91 % 1019,3 hPa 0,0 l/m 0 min 0 min 95 W/m 32,2 km/h (5 Bft) 95,74 %
17.12.2020 12:08 10,1 C 10,0 C 8,3 C 90 % 1019,3 hPa 0,0 l/m 0 min 0 min 135 W/m 29,0 km/h (5 Bft) 93,94 %
17.12.2020 12:10 10,1 C 10,0 C 8,3 C 90 % 1019,3 hPa 0,0 l/m 0 min 0 min 105 W/m 29,0 km/h (5 Bft) 95,74 %
17.12.2020 12:12 10,1 C 10,0 C 8,3 C 90 % 1019,3 hPa 0,0 l/m 0 min 0 min 128 W/m 38,6 km/h (5 Bft) 97,87 %
17.12.2020 12:14 10,1 C 10,6 C 8,3 C 90 % 1019,2 hPa 0,0 l/m 0 min 0 min 112 W/m 35,4 km/h (5 Bft) 95,74 %
17.12.2020 12:16 10,2 C 10,0 C 8,3 C 89 % 1019,3 hPa 0,0 l/m 0 min 0 min 87 W/m 35,4 km/h (5 Bft) 97,56 %
17.12.2020 12:18 10,2 C 10,0 C 7,7 C 89 % 1019,4 hPa 0,0 l/m 0 min 0 min 67 W/m 32,2 km/h (5 Bft) 96,15 %
17.12.2020 12:20 10,2 C 10,0 C 7,7 C 89 % 1019,4 hPa 0,0 l/m 0 min 0 min 55 W/m 25,7 km/h (4 Bft) 95,74 %
17.12.2020 12:22 10,2 C 10,0 C 7,7 C 89 % 1019,3 hPa 0,0 l/m 0 min 0 min 58 W/m 32,2 km/h (5 Bft) 97,87 %
17.12.2020 12:24 10,2 C 10,0 C 7,7 C 89 % 1019,4 hPa 0,0 l/m 0 min 0 min 74 W/m 32,2 km/h (5 Bft) 100,00 %
17.12.2020 12:26 10,3 C 10,0 C 8,3 C 89 % 1019,3 hPa 0,0 l/m 0 min 0 min 93 W/m 19,3 km/h (3 Bft) 97,87 %
17.12.2020 12:28 10,3 C 10,0 C 8,3 C 89 % 1019,3 hPa 0,0 l/m 0 min 0 min 85 W/m 25,7 km/h (4 Bft) 97,83 %
17.12.2020 12:30 10,2 C 10,0 C 7,7 C 89 % 1019,3 hPa 0,0 l/m 0 min 0 min 65 W/m 29,0 km/h (5 Bft) 100,00 %
17.12.2020 12:32 10,2 C 10,0 C 7,7 C 89 % 1019,4 hPa 0,0 l/m 0 min 0 min 95 W/m 25,7 km/h (4 Bft) 100,00 %
17.12.2020 12:34 10,2 C 10,0 C 7,7 C 89 % 1019,4 hPa 0,0 l/m 0 min 0 min 94 W/m 45,1 km/h (6 Bft) 100,00 %
17.12.2020 12:36 10,2 C 10,0 C 7,7 C 89 % 1019,4 hPa 0,0 l/m 0 min 0 min 88 W/m 38,6 km/h (5 Bft) 97,87 %
17.12.2020 12:38 10,2 C 10,0 C 8,3 C 89 % 1019,4 hPa 0,0 l/m 2 min 0 min 179 W/m 29,0 km/h (5 Bft) 97,87 %
17.12.2020 12:40 10,3 C 10,0 C 8,3 C 89 % 1019,4 hPa 0,0 l/m 0 min 0 min 98 W/m 38,6 km/h (5 Bft) 100,00 %
17.12.2020 12:42 10,2 C 10,0 C 7,7 C 89 % 1019,4 hPa 0,0 l/m 0 min 0 min 73 W/m 32,2 km/h (5 Bft) 100,00 %
17.12.2020 12:44 10,3 C 10,0 C 7,7 C 89 % 1019,4 hPa 0,0 l/m 0 min 0 min 66 W/m 29,0 km/h (5 Bft) 100,00 %
17.12.2020 12:46 10,3 C 10,0 C 8,3 C 89 % 1019,5 hPa 0,0 l/m 0 min 0 min 52 W/m 25,7 km/h (4 Bft) 95,74 %
17.12.2020 12:48 10,3 C 10,0 C 8,3 C 88 % 1019,5 hPa 0,0 l/m 0 min 0 min 51 W/m 35,4 km/h (5 Bft) 100,00 %
17.12.2020 12:50 10,3 C 10,0 C 8,3 C 88 % 1019,5 hPa 0,0 l/m 0 min 0 min 47 W/m 25,7 km/h (4 Bft) 97,87 %
17.12.2020 12:52 10,3 C 10,0 C 8,3 C 88 % 1019,5 hPa 0,0 l/m 0 min 0 min 63 W/m 35,4 km/h (5 Bft) 96,15 %
17.12.2020 12:54 10,3 C 10,0 C 8,3 C 88 % 1019,5 hPa 0,0 l/m 0 min 0 min 63 W/m 22,5 km/h (4 Bft) 97,87 %
17.12.2020 12:56 10,3 C 10,0 C 8,3 C 88 % 1019,5 hPa 0,0 l/m 0 min 0 min 83 W/m 22,5 km/h (4 Bft) 97,87 %
17.12.2020 12:58 10,3 C 10,0 C 8,3 C 88 % 1019,5 hPa 0,0 l/m 0 min 0 min 106 W/m 29,0 km/h (5 Bft) 97,87 %
17.12.2020 13:00 10,3 C 10,0 C 8,3 C 88 % 1019,5 hPa 0,0 l/m 0 min 0 min 69 W/m 32,2 km/h (5 Bft) 94,29 %
17.12.2020 13:02 10,3 C 10,0 C 8,3 C 88 % 1019,6 hPa 0,0 l/m 0 min 0 min 76 W/m 25,7 km/h (4 Bft) 97,87 %
17.12.2020 13:04 10,3 C 11,1 C 8,3 C 88 % 1019,6 hPa 0,0 l/m 2 min 0 min 148 W/m 32,2 km/h (5 Bft) 97,83 %
17.12.2020 13:06 10,3 C 11,7 C 8,8 C 88 % 1019,5 hPa 0,0 l/m 2 min 0 min 276 W/m 25,7 km/h (4 Bft) 97,87 %
17.12.2020 13:08 10,3 C 10,6 C 8,3 C 88 % 1019,6 hPa 0,0 l/m 2 min 0 min 151 W/m 25,7 km/h (4 Bft) 97,87 %
17.12.2020 13:10 10,4 C 11,1 C 8,3 C 88 % 1019,5 hPa 0,0 l/m 0 min 0 min 99 W/m 38,6 km/h (5 Bft) 97,87 %
17.12.2020 13:12 10,4 C 10,6 C 8,3 C 87 % 1019,6 hPa 0,0 l/m 0 min 0 min 86 W/m 29,0 km/h (5 Bft) 97,87 %
17.12.2020 13:14 10,4 C 10,6 C 8,3 C 87 % 1019,5 hPa 0,0 l/m 0 min 0 min 85 W/m 32,2 km/h (5 Bft) 97,87 %
17.12.2020 13:16 10,4 C 10,0 C 8,3 C 87 % 1019,6 hPa 0,0 l/m 0 min 0 min 67 W/m 38,6 km/h (5 Bft) 97,83 %
17.12.2020 13:18 10,4 C 11,1 C 8,3 C 87 % 1019,6 hPa 0,0 l/m 0 min 0 min 113 W/m 29,0 km/h (5 Bft) 97,87 %
17.12.2020 13:20 10,4 C 10,0 C 8,3 C 87 % 1019,6 hPa 0,0 l/m 2 min 0 min 163 W/m 29,0 km/h (5 Bft) 97,87 %
17.12.2020 13:22 10,4 C 10,0 C 8,3 C 87 % 1019,6 hPa 0,0 l/m 0 min 0 min 56 W/m 35,4 km/h (5 Bft) 97,87 %
17.12.2020 13:24 10,4 C 10,0 C 7,7 C 87 % 1019,6 hPa 0,0 l/m 0 min 0 min 56 W/m 35,4 km/h (5 Bft) 97,87 %
17.12.2020 13:26 10,4 C 10,0 C 7,7 C 87 % 1019,6 hPa 0,0 l/m 0 min 0 min 63 W/m 22,5 km/h (4 Bft) 97,87 %
17.12.2020 13:28 10,4 C 11,7 C 8,3 C 87 % 1019,6 hPa 0,0 l/m 2 min 0 min 186 W/m 22,5 km/h (4 Bft) 97,83 %
17.12.2020 13:30 10,4 C 11,1 C 8,3 C 87 % 1019,6 hPa 0,0 l/m 2 min 0 min 259 W/m 35,4 km/h (5 Bft) 97,87 %
17.12.2020 13:32 10,4 C 10,6 C 8,3 C 87 % 1019,6 hPa 0,0 l/m 0 min 0 min 100 W/m 35,4 km/h (5 Bft) 95,74 %
17.12.2020 13:34 10,4 C 10,0 C 8,3 C 87 % 1019,7 hPa 0,0 l/m 0 min 0 min 46 W/m 25,7 km/h (4 Bft) 97,87 %
17.12.2020 13:36 10,4 C 10,0 C 8,3 C 87 % 1019,6 hPa 0,0 l/m 0 min 0 min 55 W/m 25,7 km/h (4 Bft) 100,00 %
17.12.2020 13:38 10,4 C 10,0 C 8,3 C 86 % 1019,6 hPa 0,0 l/m 0 min 0 min 56 W/m 32,2 km/h (5 Bft) 97,87 %
17.12.2020 13:40 10,4 C 10,0 C 7,7 C 86 % 1019,5 hPa 0,0 l/m 0 min 0 min 60 W/m 32,2 km/h (5 Bft) 100,00 %
17.12.2020 13:42 10,3 C 10,0 C 7,7 C 86 % 1019,6 hPa 0,0 l/m 0 min 0 min 64 W/m 22,5 km/h (4 Bft) 97,87 %
17.12.2020 13:44 10,3 C 10,0 C 7,7 C 86 % 1019,6 hPa 0,0 l/m 0 min 0 min 75 W/m 38,6 km/h (5 Bft) 100,00 %
17.12.2020 13:46 10,3 C 10,0 C 7,7 C 86 % 1019,7 hPa 0,0 l/m 0 min 0 min 105 W/m 16,1 km/h (3 Bft) 100,00 %
17.12.2020 13:48 10,3 C 10,0 C 7,7 C 86 % 1019,7 hPa 0,0 l/m 0 min 0 min 65 W/m 22,5 km/h (4 Bft) 97,87 %
17.12.2020 13:50 10,3 C 10,6 C 7,7 C 86 % 1019,7 hPa 0,0 l/m 0 min 0 min 58 W/m 25,7 km/h (4 Bft) 100,00 %
17.12.2020 13:52 10,3 C 10,6 C 7,7 C 86 % 1019,7 hPa 0,0 l/m 0 min 0 min 69 W/m 19,3 km/h (3 Bft) 100,00 %
17.12.2020 13:54 10,3 C 11,1 C 7,7 C 87 % 1019,7 hPa 0,0 l/m 0 min 0 min 108 W/m 32,2 km/h (5 Bft) 97,87 %
17.12.2020 13:56 10,3 C 12,2 C 8,3 C 87 % 1019,7 hPa 0,0 l/m 2 min 0 min 226 W/m 25,7 km/h (4 Bft) 100,00 %
17.12.2020 13:58 10,4 C 12,2 C 8,3 C 86 % 1019,6 hPa 0,0 l/m 2 min 0 min 235 W/m 38,6 km/h (5 Bft) 100,00 %
17.12.2020 14:00 10,4 C 12,2 C 8,3 C 86 % 1019,7 hPa 0,0 l/m 2 min 0 min 233 W/m 29,0 km/h (5 Bft) 100,00 %
17.12.2020 14:02 10,5 C 12,8 C 8,3 C 86 % 1019,7 hPa 0,0 l/m 2 min 0 min 232 W/m 25,7 km/h (4 Bft) 100,00 %
17.12.2020 14:04 10,5 C 12,2 C 8,3 C 86 % 1019,6 hPa 0,0 l/m 2 min 0 min 230 W/m 35,4 km/h (5 Bft) 100,00 %
17.12.2020 14:06 10,5 C 12,2 C 8,3 C 85 % 1019,6 hPa 0,0 l/m 2 min 0 min 230 W/m 32,2 km/h (5 Bft) 95,74 %
17.12.2020 14:08 10,6 C 12,8 C 8,3 C 85 % 1019,6 hPa 0,0 l/m 2 min 0 min 230 W/m 25,7 km/h (4 Bft) 100,00 %
17.12.2020 14:10 10,6 C 12,8 C 8,3 C 85 % 1019,6 hPa 0,0 l/m 2 min 0 min 228 W/m 29,0 km/h (5 Bft) 100,00 %
17.12.2020 14:12 10,7 C 12,2 C 8,3 C 84 % 1019,6 hPa 0,0 l/m 2 min 0 min 189 W/m 25,7 km/h (4 Bft) 97,87 %
17.12.2020 14:14 10,7 C 12,2 C 8,3 C 84 % 1019,7 hPa 0,0 l/m 2 min 0 min 218 W/m 32,2 km/h (5 Bft) 97,87 %
17.12.2020 14:16 10,8 C 12,2 C 8,3 C 84 % 1019,7 hPa 0,0 l/m 2 min 0 min 217 W/m 22,5 km/h (4 Bft) 97,83 %
17.12.2020 14:18 10,8 C 12,8 C 8,3 C 84 % 1019,8 hPa 0,0 l/m 2 min 0 min 212 W/m 22,5 km/h (4 Bft) 97,87 %
17.12.2020 14:20 10,8 C 12,2 C 8,3 C 84 % 1019,7 hPa 0,0 l/m 2 min 0 min 208 W/m 41,8 km/h (6 Bft) 97,87 %
17.12.2020 14:22 10,8 C 12,2 C 8,3 C 83 % 1019,7 hPa 0,0 l/m 2 min 0 min 205 W/m 22,5 km/h (4 Bft) 97,87 %
17.12.2020 14:24 10,9 C 12,2 C 8,3 C 83 % 1019,7 hPa 0,0 l/m 2 min 0 min 196 W/m 32,2 km/h (5 Bft) 95,74 %
17.12.2020 14:26 10,9 C 12,2 C 8,3 C 83 % 1019,7 hPa 0,0 l/m 2 min 0 min 201 W/m 32,2 km/h (5 Bft) 95,74 %
17.12.2020 14:28 10,9 C 12,2 C 7,7 C 83 % 1019,7 hPa 0,0 l/m 2 min 0 min 199 W/m 38,6 km/h (5 Bft) 97,83 %
17.12.2020 14:30 10,9 C 12,8 C 7,7 C 83 % 1019,7 hPa 0,0 l/m 2 min 0 min 196 W/m 25,7 km/h (4 Bft) 97,87 %
17.12.2020 14:32 10,9 C 12,2 C 7,7 C 82 % 1019,7 hPa 0,0 l/m 2 min 0 min 193 W/m 29,0 km/h (5 Bft) 97,87 %
17.12.2020 14:34 11,0 C 12,2 C 7,7 C 82 % 1019,7 hPa 0,0 l/m 2 min 0 min 187 W/m 22,5 km/h (4 Bft) 97,87 %
17.12.2020 14:36 11,0 C 12,8 C 7,7 C 82 % 1019,8 hPa 0,0 l/m 2 min 0 min 183 W/m 25,7 km/h (4 Bft) 97,87 %
17.12.2020 14:38 11,0 C 12,2 C 7,7 C 82 % 1019,8 hPa 0,0 l/m 2 min 0 min 179 W/m 35,4 km/h (5 Bft) 97,87 %
17.12.2020 14:40 11,0 C 11,7 C 7,7 C 81 % 1019,8 hPa 0,0 l/m 2 min 0 min 176 W/m 38,6 km/h (5 Bft) 97,83 %
17.12.2020 14:42 11,0 C 11,7 C 7,7 C 81 % 1019,8 hPa 0,0 l/m 2 min 0 min 172 W/m 29,0 km/h (5 Bft) 95,74 %
17.12.2020 14:44 11,0 C 11,1 C 7,7 C 81 % 1019,8 hPa 0,0 l/m 2 min 0 min 158 W/m 41,8 km/h (6 Bft) 97,87 %
17.12.2020 14:46 10,9 C 11,1 C 7,7 C 81 % 1019,9 hPa 0,0 l/m 2 min 0 min 145 W/m 29,0 km/h (5 Bft) 97,87 %
17.12.2020 14:48 10,9 C 11,1 C 7,2 C 81 % 1019,8 hPa 0,0 l/m 2 min 0 min 121 W/m 29,0 km/h (5 Bft) 97,87 %
17.12.2020 14:50 10,9 C 11,7 C 7,2 C 81 % 1019,9 hPa 0,0 l/m 2 min 0 min 107 W/m 22,5 km/h (4 Bft) 100,00 %
17.12.2020 14:52 10,9 C 12,2 C 7,2 C 81 % 1019,9 hPa 0,0 l/m 2 min 0 min 110 W/m 22,5 km/h (4 Bft) 95,74 %
17.12.2020 14:54 10,9 C 11,7 C 7,2 C 81 % 1020,0 hPa 0,0 l/m 2 min 0 min 115 W/m 38,6 km/h (5 Bft) 100,00 %
17.12.2020 14:56 10,9 C 11,7 C 7,2 C 81 % 1020,0 hPa 0,0 l/m 2 min 0 min 129 W/m 29,0 km/h (5 Bft) 100,00 %
17.12.2020 14:58 10,9 C 11,1 C 7,2 C 81 % 1020,0 hPa 0,0 l/m 2 min 0 min 139 W/m 35,4 km/h (5 Bft) 97,87 %
17.12.2020 15:00 10,9 C 11,7 C 7,2 C 81 % 1020,0 hPa 0,0 l/m 2 min 0 min 133 W/m 35,4 km/h (5 Bft) 97,83 %
17.12.2020 15:02 10,9 C 11,7 C 7,2 C 80 % 1020,0 hPa 0,0 l/m 2 min 0 min 117 W/m 41,8 km/h (6 Bft) 97,87 %
17.12.2020 15:04 10,8 C 11,1 C 7,2 C 80 % 1020,0 hPa 0,0 l/m 2 min 0 min 112 W/m 35,4 km/h (5 Bft) 95,74 %
17.12.2020 15:06 10,8 C 11,1 C 7,2 C 80 % 1020,0 hPa 0,0 l/m 2 min 0 min 103 W/m 32,2 km/h (5 Bft) 97,87 %
17.12.2020 15:08 10,8 C 11,7 C 7,2 C 80 % 1020,0 hPa 0,0 l/m 2 min 0 min 88 W/m 32,2 km/h (5 Bft) 95,74 %
17.12.2020 15:10 10,8 C 11,1 C 7,2 C 80 % 1020,0 hPa 0,0 l/m 2 min 0 min 96 W/m 22,5 km/h (4 Bft) 95,74 %
17.12.2020 15:12 10,8 C 11,1 C 7,2 C 80 % 1020,1 hPa 0,0 l/m 2 min 0 min 94 W/m 22,5 km/h (4 Bft) 97,83 %
17.12.2020 15:14 10,8 C 11,1 C 7,2 C 81 % 1020,1 hPa 0,0 l/m 2 min 0 min 78 W/m 32,2 km/h (5 Bft) 97,87 %
17.12.2020 15:16 10,8 C 11,7 C 7,2 C 80 % 1020,1 hPa 0,0 l/m 2 min 0 min 84 W/m 16,1 km/h (3 Bft) 97,87 %
17.12.2020 15:18 10,8 C 11,1 C 7,2 C 80 % 1020,1 hPa 0,0 l/m 2 min 0 min 95 W/m 32,2 km/h (5 Bft) 97,87 %
17.12.2020 15:20 10,8 C 10,6 C 7,2 C 80 % 1020,1 hPa 0,0 l/m 2 min 0 min 86 W/m 32,2 km/h (5 Bft) 97,87 %
17.12.2020 15:22 10,8 C 11,1 C 7,2 C 80 % 1020,1 hPa 0,0 l/m 2 min 0 min 63 W/m 29,0 km/h (5 Bft) 97,87 %
17.12.2020 15:24 10,8 C 10,6 C 7,2 C 80 % 1020,1 hPa 0,0 l/m 0 min 0 min 58 W/m 32,2 km/h (5 Bft) 97,83 %
17.12.2020 15:26 10,7 C 11,1 C 7,2 C 80 % 1020,1 hPa 0,0 l/m 2 min 0 min 79 W/m 25,7 km/h (4 Bft) 97,87 %
17.12.2020 15:28 10,7 C 11,1 C 7,2 C 80 % 1020,1 hPa 0,0 l/m 2 min 0 min 78 W/m 19,3 km/h (3 Bft) 97,87 %
17.12.2020 15:30 10,6 C 11,1 C 6,6 C 80 % 1020,1 hPa 0,0 l/m 2 min 0 min 74 W/m 25,7 km/h (4 Bft) 97,87 %
17.12.2020 15:32 10,6 C 11,1 C 6,6 C 80 % 1020,2 hPa 0,0 l/m 2 min 0 min 71 W/m 25,7 km/h (4 Bft) 97,87 %
17.12.2020 15:34 10,6 C 11,1 C 6,6 C 80 % 1020,2 hPa 0,0 l/m 2 min 0 min 68 W/m 29,0 km/h (5 Bft) 95,74 %
17.12.2020 15:36 10,6 C 11,1 C 6,6 C 80 % 1020,2 hPa 0,0 l/m 2 min 0 min 59 W/m 19,3 km/h (3 Bft) 97,83 %
17.12.2020 15:38 10,6 C 10,6 C 6,6 C 80 % 1020,3 hPa 0,0 l/m 2 min 0 min 47 W/m 19,3 km/h (3 Bft) 97,87 %
17.12.2020 15:40 10,6 C 10,6 C 6,6 C 80 % 1020,2 hPa 0,0 l/m 0 min 0 min 34 W/m 25,7 km/h (4 Bft) 95,74 %
17.12.2020 15:42 10,6 C 10,0 C 6,6 C 80 % 1020,3 hPa 0,0 l/m 0 min 0 min 34 W/m 25,7 km/h (4 Bft) 97,87 %
17.12.2020 15:44 10,6 C 10,0 C 6,6 C 80 % 1020,3 hPa 0,0 l/m 0 min 0 min 32 W/m 16,1 km/h (3 Bft) 97,87 %
17.12.2020 15:46 10,5 C 10,0 C 6,6 C 80 % 1020,4 hPa 0,0 l/m 0 min 0 min 32 W/m 16,1 km/h (3 Bft) 97,87 %
17.12.2020 15:48 10,5 C 10,0 C 6,6 C 80 % 1020,5 hPa 0,0 l/m 0 min 0 min 25 W/m 22,5 km/h (4 Bft) 100,00 %
17.12.2020 15:50 10,5 C 10,0 C 6,6 C 80 % 1020,4 hPa 0,0 l/m 0 min 0 min 23 W/m 19,3 km/h (3 Bft) 97,87 %
17.12.2020 15:52 10,5 C 10,0 C 6,6 C 80 % 1020,5 hPa 0,0 l/m 0 min 0 min 20 W/m 12,9 km/h (3 Bft) 95,74 %
17.12.2020 15:54 10,5 C 9,4 C 6,6 C 80 % 1020,5 hPa 0,0 l/m 0 min 0 min 19 W/m 16,1 km/h (3 Bft) 97,87 %
17.12.2020 15:56 10,4 C 9,4 C 6,6 C 80 % 1020,6 hPa 0,0 l/m 0 min 0 min 18 W/m 6,4 km/h (2 Bft) 97,87 %
17.12.2020 15:58 10,4 C 9,4 C 6,6 C 81 % 1020,5 hPa 0,0 l/m 0 min 0 min 17 W/m 0,0 km/h (0 Bft) 97,87 %
17.12.2020 16:00 10,4 C 9,4 C 6,1 C 81 % 1020,6 hPa 0,0 l/m 0 min 0 min 16 W/m 16,1 km/h (3 Bft) 97,83 %
17.12.2020 16:02 10,4 C 9,4 C 6,1 C 81 % 1020,6 hPa 0,0 l/m 0 min 0 min 15 W/m 25,7 km/h (4 Bft) 97,14 %
17.12.2020 16:04 10,3 C 9,4 C 6,6 C 81 % 1020,6 hPa 0,0 l/m 0 min 0 min 13 W/m 16,1 km/h (3 Bft) 97,87 %
17.12.2020 16:06 10,3 C 9,4 C 6,1 C 81 % 1020,7 hPa 0,0 l/m 0 min 0 min 12 W/m 22,5 km/h (4 Bft) 97,87 %
17.12.2020 16:08 10,3 C 9,4 C 6,1 C 81 % 1020,7 hPa 0,0 l/m 0 min 0 min 11 W/m 19,3 km/h (3 Bft) 95,74 %
17.12.2020 16:10 10,3 C 9,4 C 6,1 C 81 % 1020,7 hPa 0,0 l/m 0 min 0 min 11 W/m 19,3 km/h (3 Bft) 97,87 %
17.12.2020 16:12 10,2 C 9,4 C 6,1 C 81 % 1020,8 hPa 0,0 l/m 0 min 0 min 9 W/m 3,2 km/h (1 Bft) 97,87 %
17.12.2020 16:14 10,2 C 9,4 C 6,1 C 81 % 1020,9 hPa 0,0 l/m 0 min 0 min 9 W/m 25,7 km/h (4 Bft) 97,83 %
17.12.2020 16:16 10,1 C 9,4 C 6,1 C 82 % 1020,9 hPa 0,0 l/m 0 min 0 min 9 W/m 22,5 km/h (4 Bft) 95,74 %
17.12.2020 16:18 10,1 C 9,4 C 6,1 C 82 % 1020,9 hPa 0,0 l/m 0 min 0 min 7 W/m 12,9 km/h (3 Bft) 95,74 %
17.12.2020 16:20 10,1 C 9,4 C 6,1 C 82 % 1020,9 hPa 0,0 l/m 0 min 0 min 7 W/m 22,5 km/h (4 Bft) 97,87 %
17.12.2020 16:22 10,0 C 9,4 C 6,1 C 82 % 1021,0 hPa 0,0 l/m 0 min 0 min 6 W/m 12,9 km/h (3 Bft) 97,87 %
17.12.2020 16:24 10,0 C 8,9 C 6,1 C 82 % 1021,0 hPa 0,0 l/m 0 min 0 min 5 W/m 0,0 km/h (0 Bft) 97,87 %
17.12.2020 16:26 10,0 C 8,9 C 6,1 C 82 % 1021,0 hPa 0,0 l/m 0 min 0 min 5 W/m 16,1 km/h (3 Bft) 97,87 %
17.12.2020 16:28 10,0 C 8,9 C 6,1 C 82 % 1021,0 hPa 0,0 l/m 0 min 0 min 5 W/m 16,1 km/h (3 Bft) 97,83 %
17.12.2020 16:30 9,9 C 8,9 C 6,1 C 82 % 1021,1 hPa 0,0 l/m 0 min 0 min 2 W/m 19,3 km/h (3 Bft) 97,87 %
17.12.2020 16:32 9,9 C 8,9 C 6,1 C 83 % 1021,1 hPa 0,0 l/m 0 min 0 min 0 W/m 19,3 km/h (3 Bft) 97,87 %
17.12.2020 16:34 9,9 C 8,9 C 6,1 C 82 % 1021,1 hPa 0,0 l/m 0 min 0 min 0 W/m 12,9 km/h (3 Bft) 97,87 %
17.12.2020 16:36 9,8 C 8,9 C 6,1 C 83 % 1021,0 hPa 0,0 l/m 0 min 0 min 0 W/m 19,3 km/h (3 Bft) 97,87 %
17.12.2020 16:38 9,8 C 8,9 C 6,1 C 83 % 1021,2 hPa 0,0 l/m 0 min 0 min 0 W/m 25,7 km/h (4 Bft) 97,83 %
17.12.2020 16:40 9,8 C 8,9 C 6,1 C 83 % 1021,1 hPa 0,0 l/m 0 min 0 min 0 W/m 22,5 km/h (4 Bft) 97,87 %
17.12.2020 16:42 9,7 C 8,9 C 6,1 C 83 % 1021,2 hPa 0,0 l/m 0 min 0 min 0 W/m 22,5 km/h (4 Bft) 97,87 %
17.12.2020 16:44 9,6 C 8,9 C 6,1 C 83 % 1021,2 hPa 0,0 l/m 0 min 0 min 0 W/m 19,3 km/h (3 Bft) 95,74 %
17.12.2020 16:46 9,6 C 8,9 C 6,1 C 83 % 1021,2 hPa 0,0 l/m 0 min 0 min 0 W/m 19,3 km/h (3 Bft) 97,87 %
17.12.2020 16:48 9,6 C 8,9 C 6,1 C 83 % 1021,3 hPa 0,0 l/m 0 min 0 min 0 W/m 16,1 km/h (3 Bft) 98,15 %
17.12.2020 16:50 9,6 C 8,9 C 6,1 C 83 % 1021,3 hPa 0,0 l/m 0 min 0 min 0 W/m 3,2 km/h (1 Bft) 97,87 %
17.12.2020 16:52 9,5 C 8,9 C 6,1 C 83 % 1021,3 hPa 0,0 l/m 0 min 0 min 0 W/m 12,9 km/h (3 Bft) 97,87 %
17.12.2020 16:54 9,5 C 8,9 C 5,5 C 83 % 1021,4 hPa 0,0 l/m 0 min 0 min 0 W/m 6,4 km/h (2 Bft) 97,87 %
17.12.2020 16:56 9,5 C 8,9 C 6,1 C 83 % 1021,4 hPa 0,0 l/m 0 min 0 min 0 W/m 16,1 km/h (3 Bft) 100,00 %
17.12.2020 16:58 9,5 C 8,9 C 5,5 C 83 % 1021,4 hPa 0,0 l/m 0 min 0 min 0 W/m 22,5 km/h (4 Bft) 97,87 %
17.12.2020 17:00 9,5 C 8,9 C 6,1 C 83 % 1021,5 hPa 0,0 l/m 0 min 0 min 0 W/m 6,4 km/h (2 Bft) 97,83 %
17.12.2020 17:02 9,5 C 8,9 C 6,1 C 83 % 1021,5 hPa 0,0 l/m 0 min 0 min 0 W/m 6,4 km/h (2 Bft) 97,87 %
17.12.2020 17:04 9,5 C 8,9 C 6,1 C 84 % 1021,6 hPa 0,0 l/m 0 min 0 min 0 W/m 16,1 km/h (3 Bft) 97,87 %
17.12.2020 17:06 9,4 C 8,9 C 6,1 C 84 % 1021,6 hPa 0,0 l/m 0 min 0 min 0 W/m 19,3 km/h (3 Bft) 95,74 %
17.12.2020 17:08 9,4 C 8,9 C 6,1 C 84 % 1021,5 hPa 0,0 l/m 0 min 0 min 0 W/m 12,9 km/h (3 Bft) 97,87 %
17.12.2020 17:10 9,4 C 8,9 C 6,1 C 84 % 1021,5 hPa 0,0 l/m 0 min 0 min 0 W/m 16,1 km/h (3 Bft) 95,74 %
17.12.2020 17:12 9,4 C 8,9 C 6,1 C 84 % 1021,6 hPa 0,0 l/m 0 min 0 min 0 W/m 0,0 km/h (0 Bft) 97,83 %
17.12.2020 17:14 9,4 C 8,9 C 6,1 C 84 % 1021,6 hPa 0,0 l/m 0 min 0 min 0 W/m 12,9 km/h (3 Bft) 97,87 %
17.12.2020 17:16 9,4 C 8,3 C 5,5 C 84 % 1021,5 hPa 0,0 l/m 0 min 0 min 0 W/m 6,4 km/h (2 Bft) 97,87 %
17.12.2020 17:18 9,4 C 8,3 C 5,5 C 84 % 1021,5 hPa 0,0 l/m 0 min 0 min 0 W/m 16,1 km/h (3 Bft) 95,74 %
17.12.2020 17:20 9,4 C 8,3 C 5,5 C 84 % 1021,5 hPa 0,0 l/m 0 min 0 min 0 W/m 12,9 km/h (3 Bft) 93,62 %
17.12.2020 17:22 9,4 C 8,3 C 5,5 C 84 % 1021,6 hPa 0,0 l/m 0 min 0 min 0 W/m 6,4 km/h (2 Bft) 97,87 %
17.12.2020 17:24 9,3 C 8,3 C 5,5 C 84 % 1021,6 hPa 0,0 l/m 0 min 0 min 0 W/m 12,9 km/h (3 Bft) 97,83 %
17.12.2020 17:26 9,3 C 8,3 C 5,5 C 84 % 1021,5 hPa 0,0 l/m 0 min 0 min 0 W/m 6,4 km/h (2 Bft) 97,87 %
17.12.2020 17:28 9,3 C 8,3 C 5,5 C 84 % 1021,5 hPa 0,0 l/m 0 min 0 min 0 W/m 0,0 km/h (0 Bft) 97,87 %
17.12.2020 17:30 9,3 C 8,3 C 5,5 C 84 % 1021,6 hPa 0,0 l/m 0 min 0 min 0 W/m 6,4 km/h (2 Bft) 100,00 %
17.12.2020 17:32 9,3 C 8,3 C 5,5 C 84 % 1021,6 hPa 0,0 l/m 0 min 0 min 0 W/m 3,2 km/h (1 Bft) 100,00 %
17.12.2020 17:34 9,3 C 8,3 C 5,5 C 84 % 1021,6 hPa 0,0 l/m 0 min 0 min 0 W/m 3,2 km/h (1 Bft) 97,87 %
17.12.2020 17:36 9,2 C 8,3 C 5,5 C 84 % 1021,6 hPa 0,0 l/m 0 min 0 min 0 W/m 6,4 km/h (2 Bft) 100,00 %
17.12.2020 17:38 9,2 C 8,3 C 5,5 C 84 % 1021,6 hPa 0,0 l/m 0 min 0 min 0 W/m 3,2 km/h (1 Bft) 97,87 %
17.12.2020 17:40 9,2 C 8,3 C 5,5 C 84 % 1021,6 hPa 0,0 l/m 0 min 0 min 0 W/m 0,0 km/h (0 Bft) 97,87 %
17.12.2020 17:42 9,1 C 8,3 C 5,5 C 84 % 1021,6 hPa 0,0 l/m 0 min 0 min 0 W/m 0,0 km/h (0 Bft) 100,00 %
17.12.2020 17:44 9,1 C 8,3 C 5,5 C 85 % 1021,7 hPa 0,0 l/m 0 min 0 min 0 W/m 6,4 km/h (2 Bft) 100,00 %
17.12.2020 17:46 9,1 C 8,3 C 5,5 C 85 % 1021,6 hPa 0,0 l/m 0 min 0 min 0 W/m 0,0 km/h (0 Bft) 100,00 %
17.12.2020 17:48 9,1 C 8,3 C 5,5 C 85 % 1021,6 hPa 0,0 l/m 0 min 0 min 0 W/m 0,0 km/h (0 Bft) 100,00 %
17.12.2020 17:50 9,1 C 8,3 C 5,5 C 85 % 1021,6 hPa 0,0 l/m 0 min 0 min 0 W/m 0,0 km/h (0 Bft) 100,00 %
17.12.2020 17:52 9,1 C 8,3 C 5,5 C 85 % 1021,6 hPa 0,0 l/m 0 min 0 min 0 W/m 3,2 km/h (1 Bft) 100,00 %
17.12.2020 17:54 9,0 C 8,3 C 5,5 C 85 % 1021,7 hPa 0,0 l/m 0 min 0 min 0 W/m 3,2 km/h (1 Bft) 100,00 %
17.12.2020 17:56 9,0 C 8,3 C 5,5 C 85 % 1021,7 hPa 0,0 l/m 0 min 0 min 0 W/m 3,2 km/h (1 Bft) 100,00 %
17.12.2020 17:58 9,0 C 8,3 C 5,5 C 85 % 1021,7 hPa 0,0 l/m 0 min 0 min 0 W/m 3,2 km/h (1 Bft) 100,00 %
17.12.2020 18:00 9,0 C 8,3 C 5,5 C 85 % 1021,7 hPa 0,0 l/m 0 min 0 min 0 W/m 3,2 km/h (1 Bft) 100,00 %
17.12.2020 18:02 9,0 C 8,3 C 5,5 C 85 % 1021,7 hPa 0,0 l/m 0 min 0 min 0 W/m 3,2 km/h (1 Bft) 100,00 %
17.12.2020 18:04 9,0 C 8,3 C 5,5 C 85 % 1021,7 hPa 0,0 l/m 0 min 0 min 0 W/m 6,4 km/h (2 Bft) 100,00 %
17.12.2020 18:07 9,0 C 8,3 C 5,5 C 85 % 1021,8 hPa 0,0 l/m 0 min 0 min 0 W/m 19,3 km/h (3 Bft) 100,00 %
17.12.2020 18:08 9,0 C 8,3 C 5,5 C 85 % 1021,8 hPa 0,0 l/m 0 min 0 min 0 W/m 19,3 km/h (3 Bft) 95,83 %
17.12.2020 18:10 9,0 C 8,3 C 6,1 C 85 % 1021,7 hPa 0,0 l/m 0 min 0 min 0 W/m 0,0 km/h (0 Bft) 97,87 %
17.12.2020 18:12 9,0 C 8,3 C 6,1 C 85 % 1021,7 hPa 0,0 l/m 0 min 0 min 0 W/m 0,0 km/h (0 Bft) 97,83 %
17.12.2020 18:14 9,0 C 8,3 C 6,1 C 85 % 1021,7 hPa 0,0 l/m 0 min 0 min 0 W/m 0,0 km/h (0 Bft) 100,00 %
17.12.2020 18:16 9,0 C 8,3 C 6,1 C 86 % 1021,7 hPa 0,0 l/m 0 min 0 min 0 W/m 3,2 km/h (1 Bft) 100,00 %
17.12.2020 18:18 8,9 C 8,3 C 6,1 C 86 % 1021,7 hPa 0,0 l/m 0 min 0 min 0 W/m 0,0 km/h (0 Bft) 97,87 %
17.12.2020 18:20 8,9 C 8,3 C 5,5 C 86 % 1021,8 hPa 0,0 l/m 0 min 0 min 0 W/m 6,4 km/h (2 Bft) 100,00 %
17.12.2020 18:22 8,9 C 8,3 C 5,5 C 86 % 1021,7 hPa 0,0 l/m 0 min 0 min 0 W/m 3,2 km/h (1 Bft) 100,00 %
17.12.2020 18:24 8,9 C 8,3 C 5,5 C 86 % 1021,7 hPa 0,0 l/m 0 min 0 min 0 W/m 3,2 km/h (1 Bft) 95,65 %
17.12.2020 18:26 8,9 C 8,3 C 5,5 C 86 % 1021,7 hPa 0,0 l/m 0 min 0 min 0 W/m 0,0 km/h (0 Bft) 95,74 %
17.12.2020 18:28 8,9 C 8,3 C 5,5 C 86 % 1021,8 hPa 0,0 l/m 0 min 0 min 0 W/m 0,0 km/h (0 Bft) 97,87 %
17.12.2020 18:30 8,9 C 7,8 C 5,5 C 86 % 1021,8 hPa 0,0 l/m 0 min 0 min 0 W/m 0,0 km/h (0 Bft) 95,74 %
17.12.2020 18:32 8,9 C 7,8 C 5,5 C 86 % 1021,8 hPa 0,0 l/m 0 min 0 min 0 W/m 0,0 km/h (0 Bft) 95,74 %
17.12.2020 18:34 8,8 C 7,8 C 5,5 C 86 % 1021,8 hPa 0,0 l/m 0 min 0 min 0 W/m 3,2 km/h (1 Bft) 95,65 %
17.12.2020 18:36 8,8 C 7,8 C 5,5 C 86 % 1021,8 hPa 0,0 l/m 0 min 0 min 0 W/m 0,0 km/h (0 Bft) 95,74 %
17.12.2020 18:38 8,8 C 7,8 C 5,5 C 86 % 1021,8 hPa 0,0 l/m 0 min 0 min 0 W/m 0,0 km/h (0 Bft) 95,74 %
17.12.2020 18:40 8,8 C 7,8 C 5,5 C 86 % 1021,8 hPa 0,0 l/m 0 min 0 min 0 W/m 0,0 km/h (0 Bft) 95,74 %
17.12.2020 18:42 8,7 C 7,8 C 5,5 C 86 % 1021,8 hPa 0,0 l/m 0 min 0 min 0 W/m 0,0 km/h (0 Bft) 93,62 %
17.12.2020 18:44 8,6 C 7,8 C 5,5 C 86 % 1021,8 hPa 0,0 l/m 0 min 0 min 0 W/m 0,0 km/h (0 Bft) 95,74 %
17.12.2020 18:46 8,6 C 7,8 C 5,5 C 87 % 1021,8 hPa 0,0 l/m 0 min 0 min 0 W/m 0,0 km/h (0 Bft) 93,48 %
17.12.2020 18:48 8,6 C 7,8 C 5,5 C 87 % 1021,9 hPa 0,0 l/m 0 min 0 min 0 W/m 3,2 km/h (1 Bft) 95,74 %
17.12.2020 18:50 8,5 C 7,8 C 5,5 C 87 % 1021,9 hPa 0,0 l/m 0 min 0 min 0 W/m 0,0 km/h (0 Bft) 95,74 %
17.12.2020 18:52 8,5 C 7,8 C 5,5 C 87 % 1021,8 hPa 0,0 l/m 0 min 0 min 0 W/m 0,0 km/h (0 Bft) 95,74 %
17.12.2020 18:54 8,5 C 7,2 C 4,9 C 87 % 1021,9 hPa 0,0 l/m 0 min 0 min 0 W/m 0,0 km/h (0 Bft) 93,62 %
17.12.2020 18:56 8,5 C 7,8 C 5,5 C 87 % 1021,9 hPa 0,0 l/m 0 min 0 min 0 W/m 0,0 km/h (0 Bft) 95,74 %
17.12.2020 18:58 8,4 C 7,8 C 4,9 C 87 % 1021,9 hPa 0,0 l/m 0 min 0 min 0 W/m 0,0 km/h (0 Bft) 91,89 %
17.12.2020 19:00 8,4 C 7,8 C 4,9 C 87 % 1021,9 hPa 0,0 l/m 0 min 0 min 0 W/m 0,0 km/h (0 Bft) 93,62 %
17.12.2020 19:02 8,4 C 7,8 C 4,9 C 87 % 1021,9 hPa 0,0 l/m 0 min 0 min 0 W/m 0,0 km/h (0 Bft) 95,74 %
17.12.2020 19:04 8,4 C 7,8 C 4,9 C 87 % 1021,9 hPa 0,0 l/m 0 min 0 min 0 W/m 3,2 km/h (1 Bft) 93,62 %
17.12.2020 19:06 8,4 C 7,8 C 4,9 C 88 % 1022,0 hPa 0,0 l/m 0 min 0 min 0 W/m 0,0 km/h (0 Bft) 95,74 %
17.12.2020 19:08 8,3 C 7,8 C 4,9 C 87 % 1021,9 hPa 0,0 l/m 0 min 0 min 0 W/m 3,2 km/h (1 Bft) 97,87 %
17.12.2020 19:10 8,3 C 7,8 C 4,9 C 88 % 1022,0 hPa 0,0 l/m 0 min 0 min 0 W/m 16,1 km/h (3 Bft) 95,65 %
17.12.2020 19:12 8,3 C 7,8 C 4,9 C 88 % 1022,0 hPa 0,0 l/m 0 min 0 min 0 W/m 3,2 km/h (1 Bft) 97,87 %
17.12.2020 19:14 8,3 C 7,8 C 4,9 C 88 % 1022,0 hPa 0,0 l/m 0 min 0 min 0 W/m 0,0 km/h (0 Bft) 97,87 %
17.12.2020 19:16 8,3 C 7,8 C 4,9 C 88 % 1022,0 hPa 0,0 l/m 0 min 0 min 0 W/m 6,4 km/h (2 Bft) 97,87 %
17.12.2020 19:18 8,3 C 7,8 C 4,9 C 88 % 1022,1 hPa 0,0 l/m 0 min 0 min 0 W/m 0,0 km/h (0 Bft) 95,74 %
17.12.2020 19:20 8,3 C 7,8 C 4,9 C 88 % 1022,1 hPa 0,0 l/m 0 min 0 min 0 W/m 0,0 km/h (0 Bft) 97,87 %
17.12.2020 19:22 8,3 C 7,8 C 4,9 C 88 % 1022,1 hPa 0,0 l/m 0 min 0 min 0 W/m 12,9 km/h (3 Bft) 97,83 %
17.12.2020 19:24 8,3 C 7,8 C 4,9 C 88 % 1022,1 hPa 0,0 l/m 0 min 0 min 0 W/m 3,2 km/h (1 Bft) 100,00 %
17.12.2020 19:26 8,3 C 7,8 C 5,5 C 88 % 1022,1 hPa 0,0 l/m 0 min 0 min 0 W/m 16,1 km/h (3 Bft) 97,87 %
17.12.2020 19:28 8,3 C 7,8 C 5,5 C 88 % 1022,1 hPa 0,0 l/m 0 min 0 min 0 W/m 6,4 km/h (2 Bft) 95,74 %
17.12.2020 19:30 8,3 C 7,8 C 5,5 C 88 % 1022,1 hPa 0,0 l/m 0 min 0 min 0 W/m 12,9 km/h (3 Bft) 95,74 %
17.12.2020 19:32 8,3 C 7,8 C 5,5 C 88 % 1022,1 hPa 0,0 l/m 0 min 0 min 0 W/m 25,7 km/h (4 Bft) 95,74 %
17.12.2020 19:34 8,3 C 7,8 C 5,5 C 88 % 1022,2 hPa 0,0 l/m 0 min 0 min 0 W/m 3,2 km/h (1 Bft) 93,48 %
17.12.2020 19:36 8,3 C 7,8 C 5,5 C 88 % 1022,2 hPa 0,0 l/m 0 min 0 min 0 W/m 12,9 km/h (3 Bft) 95,74 %
17.12.2020 19:38 8,3 C 7,8 C 5,5 C 88 % 1022,2 hPa 0,0 l/m 0 min 0 min 0 W/m 6,4 km/h (2 Bft) 93,62 %
17.12.2020 19:40 8,3 C 7,8 C 5,5 C 88 % 1022,2 hPa 0,0 l/m 0 min 0 min 0 W/m 12,9 km/h (3 Bft) 93,62 %
17.12.2020 19:42 8,3 C 7,8 C 5,5 C 88 % 1022,2 hPa 0,0 l/m 0 min 0 min 0 W/m 0,0 km/h (0 Bft) 93,62 %
17.12.2020 19:44 8,4 C 7,8 C 5,5 C 88 % 1022,3 hPa 0,0 l/m 0 min 0 min 0 W/m 6,4 km/h (2 Bft) 93,62 %
17.12.2020 19:46 8,4 C 7,8 C 5,5 C 88 % 1022,3 hPa 0,0 l/m 0 min 0 min 0 W/m 3,2 km/h (1 Bft) 95,65 %
17.12.2020 19:48 8,4 C 7,8 C 5,5 C 88 % 1022,4 hPa 0,0 l/m 0 min 0 min 0 W/m 3,2 km/h (1 Bft) 95,74 %
17.12.2020 19:50 8,4 C 7,8 C 5,5 C 88 % 1022,3 hPa 0,0 l/m 0 min 0 min 0 W/m 6,4 km/h (2 Bft) 95,74 %
17.12.2020 19:52 8,4 C 7,8 C 5,5 C 88 % 1022,4 hPa 0,0 l/m 0 min 0 min 0 W/m 16,1 km/h (3 Bft) 97,87 %
17.12.2020 19:54 8,4 C 7,8 C 5,5 C 88 % 1022,4 hPa 0,0 l/m 0 min 0 min 0 W/m 3,2 km/h (1 Bft) 91,49 %
17.12.2020 19:56 8,4 C 7,8 C 5,5 C 88 % 1022,4 hPa 0,0 l/m 0 min 0 min 0 W/m 6,4 km/h (2 Bft) 97,87 %
17.12.2020 19:58 8,4 C 7,8 C 5,5 C 88 % 1022,4 hPa 0,0 l/m 0 min 0 min 0 W/m 3,2 km/h (1 Bft) 97,83 %
17.12.2020 20:00 8,4 C 7,8 C 5,5 C 88 % 1022,4 hPa 0,0 l/m 0 min 0 min 0 W/m 3,2 km/h (1 Bft) 97,87 %
17.12.2020 20:02 8,4 C 7,8 C 5,5 C 88 % 1022,4 hPa 0,0 l/m 0 min 0 min 0 W/m 16,1 km/h (3 Bft) 95,74 %
17.12.2020 20:04 8,4 C 7,8 C 5,5 C 88 % 1022,5 hPa 0,0 l/m 0 min 0 min 0 W/m 12,9 km/h (3 Bft) 97,87 %
17.12.2020 20:06 8,4 C 7,8 C 5,5 C 88 % 1022,5 hPa 0,0 l/m 0 min 0 min 0 W/m 0,0 km/h (0 Bft) 97,87 %
17.12.2020 20:08 8,3 C 7,8 C 5,5 C 88 % 1022,6 hPa 0,0 l/m 0 min 0 min 0 W/m 6,4 km/h (2 Bft) 97,87 %
17.12.2020 20:10 8,4 C 7,8 C 5,5 C 88 % 1022,6 hPa 0,0 l/m 0 min 0 min 0 W/m 0,0 km/h (0 Bft) 97,83 %
17.12.2020 20:12 8,3 C 7,2 C 4,9 C 87 % 1022,6 hPa 0,0 l/m 0 min 0 min 0 W/m 0,0 km/h (0 Bft) 95,74 %
17.12.2020 20:14 8,3 C 7,2 C 4,9 C 87 % 1022,6 hPa 0,0 l/m 0 min 0 min 0 W/m 0,0 km/h (0 Bft) 97,87 %
17.12.2020 20:16 8,3 C 7,2 C 4,9 C 87 % 1022,6 hPa 0,0 l/m 0 min 0 min 0 W/m 6,4 km/h (2 Bft) 95,74 %
17.12.2020 20:18 8,3 C 7,2 C 4,9 C 87 % 1022,6 hPa 0,0 l/m 0 min 0 min 0 W/m 3,2 km/h (1 Bft) 100,00 %
17.12.2020 20:20 8,3 C 7,2 C 4,9 C 87 % 1022,6 hPa 0,0 l/m 0 min 0 min 0 W/m 6,4 km/h (2 Bft) 100,00 %
17.12.2020 20:22 8,2 C 7,2 C 4,9 C 87 % 1022,6 hPa 0,0 l/m 0 min 0 min 0 W/m 12,9 km/h (3 Bft) 97,87 %
17.12.2020 20:24 8,1 C 7,2 C 4,9 C 87 % 1022,6 hPa 0,0 l/m 0 min 0 min 0 W/m 3,2 km/h (1 Bft) 100,00 %
17.12.2020 20:26 8,1 C 7,2 C 4,9 C 87 % 1022,6 hPa 0,0 l/m 0 min 0 min 0 W/m 0,0 km/h (0 Bft) 100,00 %
17.12.2020 20:28 8,1 C 7,2 C 4,9 C 88 % 1022,6 hPa 0,0 l/m 0 min 0 min 0 W/m 0,0 km/h (0 Bft) 100,00 %
17.12.2020 20:30 8,0 C 6,7 C 4,4 C 88 % 1022,6 hPa 0,0 l/m 0 min 0 min 0 W/m 12,9 km/h (3 Bft) 97,87 %
17.12.2020 20:32 8,0 C 6,7 C 4,4 C 88 % 1022,6 hPa 0,0 l/m 0 min 0 min 0 W/m 6,4 km/h (2 Bft) 100,00 %
17.12.2020 20:34 8,0 C 6,7 C 4,4 C 88 % 1022,6 hPa 0,0 l/m 0 min 0 min 0 W/m 0,0 km/h (0 Bft) 100,00 %
17.12.2020 20:36 7,9 C 6,7 C 4,4 C 88 % 1022,6 hPa 0,0 l/m 0 min 0 min 0 W/m 6,4 km/h (2 Bft) 97,87 %
17.12.2020 20:38 7,9 C 6,7 C 4,4 C 88 % 1022,7 hPa 0,0 l/m 0 min 0 min 0 W/m 3,2 km/h (1 Bft) 100,00 %
17.12.2020 20:40 7,8 C 6,7 C 4,4 C 88 % 1022,6 hPa 0,0 l/m 0 min 0 min 0 W/m 3,2 km/h (1 Bft) 100,00 %
17.12.2020 20:42 7,8 C 6,7 C 4,4 C 88 % 1022,7 hPa 0,0 l/m 0 min 0 min 0 W/m 0,0 km/h (0 Bft) 100,00 %
17.12.2020 20:44 7,8 C 6,7 C 4,4 C 88 % 1022,6 hPa 0,0 l/m 0 min 0 min 0 W/m 3,2 km/h (1 Bft) 100,00 %
17.12.2020 20:46 7,7 C 6,7 C 4,4 C 88 % 1022,6 hPa 0,0 l/m 0 min 0 min 0 W/m 0,0 km/h (0 Bft) 100,00 %
17.12.2020 20:48 7,6 C 6,7 C 4,4 C 88 % 1022,6 hPa 0,0 l/m 0 min 0 min 0 W/m 3,2 km/h (1 Bft) 100,00 %
17.12.2020 20:50 7,6 C 6,7 C 4,4 C 88 % 1022,6 hPa 0,0 l/m 0 min 0 min 0 W/m 6,4 km/h (2 Bft) 100,00 %
17.12.2020 20:52 7,5 C 6,7 C 4,4 C 88 % 1022,6 hPa 0,0 l/m 0 min 0 min 0 W/m 0,0 km/h (0 Bft) 100,00 %
17.12.2020 20:54 7,5 C 6,7 C 4,4 C 88 % 1022,6 hPa 0,0 l/m 0 min 0 min 0 W/m 3,2 km/h (1 Bft) 97,87 %
17.12.2020 20:56 7,5 C 6,1 C 4,4 C 89 % 1022,6 hPa 0,0 l/m 0 min 0 min 0 W/m 0,0 km/h (0 Bft) 100,00 %
17.12.2020 20:58 7,4 C 6,1 C 4,4 C 89 % 1022,7 hPa 0,0 l/m 0 min 0 min 0 W/m 3,2 km/h (1 Bft) 100,00 %
17.12.2020 21:00 7,4 C 6,1 C 4,4 C 89 % 1022,7 hPa 0,0 l/m 0 min 0 min 0 W/m 0,0 km/h (0 Bft) 98,31 %
17.12.2020 21:02 7,4 C 6,1 C 4,4 C 89 % 1022,7 hPa 0,0 l/m 0 min 0 min 0 W/m 3,2 km/h (1 Bft) 97,87 %
17.12.2020 21:04 7,3 C 6,1 C 3,8 C 89 % 1022,7 hPa 0,0 l/m 0 min 0 min 0 W/m 3,2 km/h (1 Bft) 95,65 %
17.12.2020 21:06 7,3 C 6,1 C 3,8 C 89 % 1022,7 hPa 0,0 l/m 0 min 0 min 0 W/m 3,2 km/h (1 Bft) 95,74 %
17.12.2020 21:08 7,2 C 6,1 C 3,8 C 89 % 1022,7 hPa 0,0 l/m 0 min 0 min 0 W/m 0,0 km/h (0 Bft) 97,87 %
17.12.2020 21:10 7,1 C 6,1 C 3,8 C 89 % 1022,7 hPa 0,0 l/m 0 min 0 min 0 W/m 0,0 km/h (0 Bft) 93,62 %
17.12.2020 21:12 7,1 C 6,1 C 3,8 C 89 % 1022,7 hPa 0,0 l/m 0 min 0 min 0 W/m 3,2 km/h (1 Bft) 97,87 %
17.12.2020 21:14 7,1 C 6,1 C 3,8 C 89 % 1022,7 hPa 0,0 l/m 0 min 0 min 0 W/m 3,2 km/h (1 Bft) 97,87 %
17.12.2020 21:16 7,0 C 6,1 C 3,8 C 89 % 1022,8 hPa 0,0 l/m 0 min 0 min 0 W/m 0,0 km/h (0 Bft) 95,65 %
17.12.2020 21:18 7,0 C 6,1 C 3,8 C 89 % 1022,8 hPa 0,0 l/m 0 min 0 min 0 W/m 3,2 km/h (1 Bft) 97,87 %
17.12.2020 21:20 7,0 C 6,1 C 3,8 C 89 % 1022,8 hPa 0,0 l/m 0 min 0 min 0 W/m 3,2 km/h (1 Bft) 97,87 %
17.12.2020 21:22 7,0 C 6,1 C 3,8 C 90 % 1022,8 hPa 0,0 l/m 0 min 0 min 0 W/m 0,0 km/h (0 Bft) 97,87 %
17.12.2020 21:24 6,9 C 6,1 C 3,8 C 90 % 1022,9 hPa 0,0 l/m 0 min 0 min 0 W/m 3,2 km/h (1 Bft) 97,87 %
17.12.2020 21:26 6,9 C 6,1 C 3,8 C 90 % 1022,9 hPa 0,0 l/m 0 min 0 min 0 W/m 0,0 km/h (0 Bft) 95,74 %
17.12.2020 21:28 6,9 C 6,1 C 3,8 C 90 % 1022,9 hPa 0,0 l/m 0 min 0 min 0 W/m 0,0 km/h (0 Bft) 97,83 %
17.12.2020 21:30 6,9 C 6,1 C 3,8 C 90 % 1022,9 hPa 0,0 l/m 0 min 0 min 0 W/m 0,0 km/h (0 Bft) 97,87 %
17.12.2020 21:32 6,8 C 5,6 C 3,8 C 90 % 1022,8 hPa 0,0 l/m 0 min 0 min 0 W/m 3,2 km/h (1 Bft) 97,14 %
17.12.2020 21:34 6,8 C 5,6 C 3,8 C 90 % 1022,8 hPa 0,0 l/m 0 min 0 min 0 W/m 16,1 km/h (3 Bft) 97,87 %
17.12.2020 21:36 6,8 C 5,6 C 3,8 C 90 % 1022,9 hPa 0,0 l/m 0 min 0 min 0 W/m 0,0 km/h (0 Bft) 97,87 %
17.12.2020 21:38 6,8 C 5,6 C 3,8 C 90 % 1022,9 hPa 0,0 l/m 0 min 0 min 0 W/m 0,0 km/h (0 Bft) 97,87 %
17.12.2020 21:40 6,7 C 5,6 C 3,8 C 90 % 1022,9 hPa 0,0 l/m 0 min 0 min 0 W/m 0,0 km/h (0 Bft) 97,87 %
17.12.2020 21:42 6,6 C 5,6 C 3,8 C 90 % 1022,8 hPa 0,0 l/m 0 min 0 min 0 W/m 12,9 km/h (3 Bft) 97,87 %
17.12.2020 21:44 6,6 C 5,6 C 3,8 C 90 % 1022,8 hPa 0,0 l/m 0 min 0 min 0 W/m 0,0 km/h (0 Bft) 100,00 %
17.12.2020 21:46 6,6 C 5,6 C 3,8 C 91 % 1022,8 hPa 0,0 l/m 0 min 0 min 0 W/m 0,0 km/h (0 Bft) 97,87 %
17.12.2020 21:48 6,6 C 5,6 C 3,8 C 91 % 1022,8 hPa 0,0 l/m 0 min 0 min 0 W/m 0,0 km/h (0 Bft) 100,00 %
17.12.2020 21:50 6,6 C 5,6 C 3,8 C 91 % 1022,8 hPa 0,0 l/m 0 min 0 min 0 W/m 19,3 km/h (3 Bft) 100,00 %
17.12.2020 21:52 6,5 C 5,6 C 3,8 C 91 % 1022,8 hPa 0,0 l/m 0 min 0 min 0 W/m 0,0 km/h (0 Bft) 100,00 %
17.12.2020 21:54 6,5 C 5,6 C 3,8 C 91 % 1022,8 hPa 0,0 l/m 0 min 0 min 0 W/m 0,0 km/h (0 Bft) 100,00 %
17.12.2020 21:56 6,5 C 5,6 C 3,8 C 91 % 1022,8 hPa 0,0 l/m 0 min 0 min 0 W/m 0,0 km/h (0 Bft) 100,00 %
17.12.2020 21:58 6,5 C 5,6 C 3,8 C 91 % 1022,8 hPa 0,0 l/m 0 min 0 min 0 W/m 3,2 km/h (1 Bft) 100,00 %
17.12.2020 22:00 6,5 C 5,6 C 3,8 C 91 % 1022,8 hPa 0,0 l/m 0 min 0 min 0 W/m 16,1 km/h (3 Bft) 100,00 %
17.12.2020 22:02 6,5 C 5,6 C 3,8 C 91 % 1022,8 hPa 0,0 l/m 0 min 0 min 0 W/m 3,2 km/h (1 Bft) 95,74 %
17.12.2020 22:04 6,4 C 5,6 C 3,8 C 91 % 1022,8 hPa 0,0 l/m 0 min 0 min 0 W/m 3,2 km/h (1 Bft) 100,00 %
17.12.2020 22:06 6,4 C 5,6 C 3,8 C 91 % 1022,8 hPa 0,0 l/m 0 min 0 min 0 W/m 3,2 km/h (1 Bft) 100,00 %
17.12.2020 22:08 6,4 C 5,6 C 3,8 C 91 % 1022,8 hPa 0,0 l/m 0 min 0 min 0 W/m 3,2 km/h (1 Bft) 100,00 %
17.12.2020 22:10 6,4 C 5,6 C 3,8 C 92 % 1022,8 hPa 0,0 l/m 0 min 0 min 0 W/m 3,2 km/h (1 Bft) 100,00 %
17.12.2020 22:12 6,4 C 5,6 C 3,8 C 92 % 1022,8 hPa 0,0 l/m 0 min 0 min 0 W/m 0,0 km/h (0 Bft) 100,00 %
17.12.2020 22:14 6,4 C 5,6 C 3,8 C 92 % 1022,8 hPa 0,0 l/m 0 min 0 min 0 W/m 3,2 km/h (1 Bft) 97,87 %
17.12.2020 22:16 6,4 C 5,6 C 3,8 C 92 % 1022,8 hPa 0,0 l/m 0 min 0 min 0 W/m 0,0 km/h (0 Bft) 97,87 %
17.12.2020 22:18 6,4 C 5,6 C 3,8 C 92 % 1022,8 hPa 0,0 l/m 0 min 0 min 0 W/m 0,0 km/h (0 Bft) 100,00 %
17.12.2020 22:20 6,4 C 5,6 C 3,8 C 92 % 1022,8 hPa 0,0 l/m 0 min 0 min 0 W/m 6,4 km/h (2 Bft) 97,87 %
17.12.2020 22:22 6,4 C 5,6 C 3,8 C 92 % 1022,9 hPa 0,0 l/m 0 min 0 min 0 W/m 3,2 km/h (1 Bft) 97,87 %
17.12.2020 22:24 6,4 C 5,6 C 3,8 C 92 % 1022,8 hPa 0,0 l/m 0 min 0 min 0 W/m 0,0 km/h (0 Bft) 97,87 %
17.12.2020 22:26 6,4 C 5,6 C 3,8 C 92 % 1022,9 hPa 0,0 l/m 0 min 0 min 0 W/m 0,0 km/h (0 Bft) 97,87 %
17.12.2020 22:28 6,4 C 5,6 C 3,8 C 92 % 1022,9 hPa 0,0 l/m 0 min 0 min 0 W/m 0,0 km/h (0 Bft) 97,87 %
17.12.2020 22:30 6,4 C 5,6 C 3,8 C 92 % 1022,9 hPa 0,0 l/m 0 min 0 min 0 W/m 0,0 km/h (0 Bft) 95,65 %
17.12.2020 22:32 6,4 C 5,6 C 3,8 C 93 % 1022,9 hPa 0,0 l/m 0 min 0 min 0 W/m 3,2 km/h (1 Bft) 97,87 %
17.12.2020 22:34 6,4 C 5,6 C 3,8 C 93 % 1022,9 hPa 0,0 l/m 0 min 0 min 0 W/m 6,4 km/h (2 Bft) 97,87 %
17.12.2020 22:36 6,4 C 5,6 C 3,8 C 93 % 1022,9 hPa 0,0 l/m 0 min 0 min 0 W/m 0,0 km/h (0 Bft) 97,87 %
17.12.2020 22:38 6,4 C 5,6 C 3,8 C 93 % 1022,8 hPa 0,0 l/m 0 min 0 min 0 W/m 12,9 km/h (3 Bft) 97,87 %
17.12.2020 22:40 6,4 C 5,6 C 3,8 C 93 % 1022,8 hPa 0,0 l/m 0 min 0 min 0 W/m 6,4 km/h (2 Bft) 97,87 %
17.12.2020 22:42 6,4 C 5,6 C 3,8 C 93 % 1022,8 hPa 0,0 l/m 0 min 0 min 0 W/m 12,9 km/h (3 Bft) 97,83 %
17.12.2020 22:44 6,4 C 5,6 C 3,8 C 93 % 1022,8 hPa 0,0 l/m 0 min 0 min 0 W/m 3,2 km/h (1 Bft) 97,87 %
17.12.2020 22:46 6,4 C 5,6 C 3,8 C 93 % 1022,8 hPa 0,0 l/m 0 min 0 min 0 W/m 6,4 km/h (2 Bft) 97,87 %
17.12.2020 22:48 6,4 C 5,6 C 3,8 C 93 % 1022,8 hPa 0,0 l/m 0 min 0 min 0 W/m 0,0 km/h (0 Bft) 95,74 %
17.12.2020 22:50 6,4 C 5,6 C 3,8 C 93 % 1022,8 hPa 0,0 l/m 0 min 0 min 0 W/m 0,0 km/h (0 Bft) 95,74 %
17.12.2020 22:52 6,4 C 5,6 C 3,8 C 93 % 1022,8 hPa 0,0 l/m 0 min 0 min 0 W/m 0,0 km/h (0 Bft) 97,87 %
17.12.2020 22:54 6,4 C 5,6 C 3,8 C 93 % 1022,7 hPa 0,0 l/m 0 min 0 min 0 W/m 0,0 km/h (0 Bft) 97,83 %
17.12.2020 22:56 6,4 C 5,6 C 3,8 C 93 % 1022,8 hPa 0,0 l/m 0 min 0 min 0 W/m 3,2 km/h (1 Bft) 95,74 %
17.12.2020 22:58 6,4 C 5,6 C 3,8 C 93 % 1022,8 hPa 0,0 l/m 0 min 0 min 0 W/m 6,4 km/h (2 Bft) 97,87 %
17.12.2020 23:00 6,4 C 5,6 C 3,8 C 93 % 1022,8 hPa 0,0 l/m 0 min 0 min 0 W/m 6,4 km/h (2 Bft) 97,87 %
17.12.2020 23:02 6,4 C 6,1 C 3,8 C 93 % 1022,8 hPa 0,0 l/m 0 min 0 min 0 W/m 0,0 km/h (0 Bft) 96,43 %
17.12.2020 23:04 6,4 C 6,1 C 3,8 C 93 % 1022,9 hPa 0,0 l/m 0 min 0 min 0 W/m 0,0 km/h (0 Bft) 97,87 %
17.12.2020 23:06 6,4 C 5,6 C 3,8 C 94 % 1022,8 hPa 0,0 l/m 0 min 0 min 0 W/m 0,0 km/h (0 Bft) 97,83 %
17.12.2020 23:08 6,4 C 5,6 C 3,8 C 94 % 1022,9 hPa 0,0 l/m 0 min 0 min 0 W/m 0,0 km/h (0 Bft) 97,87 %
17.12.2020 23:10 6,4 C 5,6 C 3,8 C 94 % 1022,9 hPa 0,0 l/m 0 min 0 min 0 W/m 0,0 km/h (0 Bft) 97,87 %
17.12.2020 23:12 6,4 C 5,6 C 3,8 C 94 % 1022,9 hPa 0,0 l/m 0 min 0 min 0 W/m 0,0 km/h (0 Bft) 97,87 %
17.12.2020 23:14 6,4 C 5,6 C 3,8 C 94 % 1023,0 hPa 0,0 l/m 0 min 0 min 0 W/m 0,0 km/h (0 Bft) 100,00 %
17.12.2020 23:16 6,4 C 5,6 C 3,8 C 94 % 1023,0 hPa 0,0 l/m 0 min 0 min 0 W/m 0,0 km/h (0 Bft) 100,00 %
17.12.2020 23:18 6,4 C 5,6 C 3,8 C 94 % 1023,0 hPa 0,0 l/m 0 min 0 min 0 W/m 0,0 km/h (0 Bft) 100,00 %
17.12.2020 23:20 6,4 C 5,6 C 3,8 C 94 % 1023,0 hPa 0,0 l/m 0 min 0 min 0 W/m 3,2 km/h (1 Bft) 100,00 %
17.12.2020 23:22 6,4 C 5,6 C 3,8 C 94 % 1023,0 hPa 0,0 l/m 0 min 0 min 0 W/m 0,0 km/h (0 Bft) 97,87 %
17.12.2020 23:24 6,4 C 5,6 C 3,8 C 94 % 1022,9 hPa 0,0 l/m 0 min 0 min 0 W/m 0,0 km/h (0 Bft) 100,00 %
17.12.2020 23:26 6,3 C 5,6 C 3,8 C 94 % 1022,9 hPa 0,0 l/m 0 min 0 min 0 W/m 0,0 km/h (0 Bft) 95,65 %
17.12.2020 23:28 6,3 C 5,6 C 3,8 C 94 % 1022,9 hPa 0,0 l/m 0 min 0 min 0 W/m 0,0 km/h (0 Bft) 97,87 %
17.12.2020 23:30 6,3 C 5,6 C 3,8 C 94 % 1022,9 hPa 0,0 l/m 0 min 0 min 0 W/m 0,0 km/h (0 Bft) 97,87 %
17.12.2020 23:32 6,3 C 5,6 C 3,8 C 94 % 1022,9 hPa 0,0 l/m 0 min 0 min 0 W/m 0,0 km/h (0 Bft) 95,74 %
17.12.2020 23:34 6,3 C 5,6 C 3,8 C 94 % 1022,9 hPa 0,0 l/m 0 min 0 min 0 W/m 0,0 km/h (0 Bft) 97,87 %
17.12.2020 23:36 6,3 C 5,6 C 3,8 C 94 % 1022,9 hPa 0,0 l/m 0 min 0 min 0 W/m 0,0 km/h (0 Bft) 95,74 %
17.12.2020 23:38 6,3 C 5,6 C 3,8 C 94 % 1022,9 hPa 0,0 l/m 0 min 0 min 0 W/m 0,0 km/h (0 Bft) 97,83 %
17.12.2020 23:40 6,2 C 5,0 C 3,3 C 94 % 1022,9 hPa 0,0 l/m 0 min 0 min 0 W/m 0,0 km/h (0 Bft) 97,87 %
17.12.2020 23:42 6,2 C 5,0 C 3,3 C 94 % 1022,9 hPa 0,0 l/m 0 min 0 min 0 W/m 0,0 km/h (0 Bft) 97,87 %
17.12.2020 23:44 6,1 C 5,0 C 3,3 C 94 % 1022,9 hPa 0,0 l/m 0 min 0 min 0 W/m 0,0 km/h (0 Bft) 97,87 %
17.12.2020 23:46 6,1 C 5,0 C 3,3 C 94 % 1023,0 hPa 0,0 l/m 0 min 0 min 0 W/m 0,0 km/h (0 Bft) 97,87 %
17.12.2020 23:48 6,1 C 5,0 C 3,3 C 94 % 1023,0 hPa 0,0 l/m 0 min 0 min 0 W/m 0,0 km/h (0 Bft) 97,87 %
17.12.2020 23:50 6,1 C 5,0 C 3,3 C 94 % 1022,9 hPa 0,0 l/m 0 min 0 min 0 W/m 0,0 km/h (0 Bft) 97,83 %
17.12.2020 23:52 6,0 C 5,0 C 3,3 C 94 % 1023,0 hPa 0,0 l/m 0 min 0 min 0 W/m 0,0 km/h (0 Bft) 97,87 %
17.12.2020 23:54 6,0 C 5,0 C 3,3 C 94 % 1022,9 hPa 0,0 l/m 0 min 0 min 0 W/m 0,0 km/h (0 Bft) 97,87 %
17.12.2020 23:56 6,0 C 5,0 C 3,3 C 94 % 1022,9 hPa 0,0 l/m 0 min 0 min 0 W/m 0,0 km/h (0 Bft) 93,62 %
17.12.2020 23:58 6,0 C 5,0 C 3,3 C 94 % 1022,9 hPa 0,0 l/m 0 min 0 min 0 W/m 0,0 km/h (0 Bft) 97,87 %
_ Min-Zeit 23:52 23:40 23:40 15:02 04:52 - - - - 00:10 03:22
Minimum _ 6,0 C 5,0 C 3,3 C 80 % 1014,1 hPa - - - - 0,0 km/h (0 Bft) 47,73 %
_ Max-Zeit 14:34 14:02 13:06 07:32 23:14 06:18 12:38 02:30 13:06 12:34 01:08
Maximum _ 11,0 C 12,8 C 8,8 C 97 % 1023,0 hPa 0,2 l/m 2 min 2 min 276 W/m 45,1 km/h
S-SO (6 Bft)
100,00 %
Durchschnitt _ 8,9 C 8,3 C 6,8 C 91 % 1018,6 hPa #2,0 l/m #1:56 h #2:54 h 78 W/m 12,3 km/h (3 Bft) 97,22 %
© 2020 W. Hausmann